<?xml version="1.0" encoding="UTF-8" standalone="no" ?>
<gpx xmlns="http://www.topografix.com/GPX/1/1" xmlns:xsi="http://www.w3.org/2001/XMLSchema-instance" xsi:schemaLocation="http://www.topografix.com/GPX/1/1 http://www.topografix.com/GPX/1/1/gpx.xsd" version="1.1" creator="VisuGPX - https://www.visugpx.com">
  <metadata>
    <name>Le 8 de Saint-Izaire boucle 2</name>
  </metadata>
  <trk>
    <name><![CDATA[Le 8 de Saint-Izaire boucle 2]]></name>
    <extensions>
      <line xmlns="http://www.topografix.com/GPX/gpx_style/0/2">
        <color>ffff00</color>
        <opacity>0.8</opacity>
        <width>4</width>
      </line>
    </extensions>
    <trkseg>
      <trkpt lat="43.97369" lon="2.72002">
        <ele>267.60000610352</ele>
        <time>2020-10-18T07:45:00.000Z</time>
        <extensions>
          <visugpx:TrkExtension xmlns:visugpx="https://www.visugpx.com/editgpx/">
            <visugpx:node>2</visugpx:node>
            </visugpx:TrkExtension>
        </extensions>
      </trkpt>
      <trkpt lat="43.97373" lon="2.72011">
        <ele>267.20001220703</ele>
        <time>2020-10-18T07:45:10.000Z</time>
      </trkpt>
      <trkpt lat="43.9738" lon="2.72018">
        <ele>266.60000610352</ele>
        <time>2020-10-18T07:45:15.000Z</time>
      </trkpt>
      <trkpt lat="43.97384" lon="2.72043">
        <ele>265.20001220703</ele>
        <time>2020-10-18T07:45:30.000Z</time>
      </trkpt>
      <trkpt lat="43.97382" lon="2.72067">
        <ele>264</ele>
        <time>2020-10-18T07:45:47.000Z</time>
      </trkpt>
      <trkpt lat="43.97369" lon="2.72083">
        <ele>263.79998779297</ele>
        <time>2020-10-18T07:46:10.000Z</time>
      </trkpt>
      <trkpt lat="43.97352" lon="2.72095">
        <ele>264.20001220703</ele>
        <time>2020-10-18T07:46:24.000Z</time>
      </trkpt>
      <trkpt lat="43.97335" lon="2.72106">
        <ele>264.79998779297</ele>
        <time>2020-10-18T07:46:32.000Z</time>
      </trkpt>
      <trkpt lat="43.97322" lon="2.72124">
        <ele>265.20001220703</ele>
        <time>2020-10-18T07:46:45.000Z</time>
      </trkpt>
      <trkpt lat="43.97324" lon="2.7215">
        <ele>266.60000610352</ele>
        <time>2020-10-18T07:46:59.000Z</time>
      </trkpt>
      <trkpt lat="43.97327" lon="2.72176">
        <ele>268.39999389648</ele>
        <time>2020-10-18T07:47:13.000Z</time>
      </trkpt>
      <trkpt lat="43.97334" lon="2.72201">
        <ele>269.39999389648</ele>
        <time>2020-10-18T07:47:27.000Z</time>
      </trkpt>
      <trkpt lat="43.97341" lon="2.72226">
        <ele>270.20001220703</ele>
        <time>2020-10-18T07:47:43.000Z</time>
      </trkpt>
      <trkpt lat="43.97349" lon="2.7225">
        <ele>271.20001220703</ele>
        <time>2020-10-18T07:47:56.000Z</time>
      </trkpt>
      <trkpt lat="43.97351" lon="2.72263">
        <ele>272</ele>
        <time>2020-10-18T07:48:03.000Z</time>
      </trkpt>
      <trkpt lat="43.97337" lon="2.72279">
        <ele>275.79998779297</ele>
        <time>2020-10-18T07:48:18.000Z</time>
      </trkpt>
      <trkpt lat="43.97331" lon="2.72303">
        <ele>279</ele>
        <time>2020-10-18T07:48:34.000Z</time>
      </trkpt>
      <trkpt lat="43.97325" lon="2.72326">
        <ele>282</ele>
        <time>2020-10-18T07:48:50.000Z</time>
      </trkpt>
      <trkpt lat="43.97323" lon="2.72351">
        <ele>285.39999389648</ele>
        <time>2020-10-18T07:49:09.000Z</time>
      </trkpt>
      <trkpt lat="43.97319" lon="2.72376">
        <ele>289.60000610352</ele>
        <time>2020-10-18T07:49:29.000Z</time>
      </trkpt>
      <trkpt lat="43.97321" lon="2.72401">
        <ele>290.39999389648</ele>
        <time>2020-10-18T07:49:50.000Z</time>
      </trkpt>
      <trkpt lat="43.97321" lon="2.72426">
        <ele>291</ele>
        <time>2020-10-18T07:50:17.000Z</time>
      </trkpt>
      <trkpt lat="43.97319" lon="2.72452">
        <ele>294.20001220703</ele>
        <time>2020-10-18T07:50:35.000Z</time>
      </trkpt>
      <trkpt lat="43.97316" lon="2.72477">
        <ele>295.60000610352</ele>
        <time>2020-10-18T07:50:52.000Z</time>
      </trkpt>
      <trkpt lat="43.97313" lon="2.72502">
        <ele>295.79998779297</ele>
        <time>2020-10-18T07:51:09.000Z</time>
      </trkpt>
      <trkpt lat="43.97322" lon="2.72523">
        <ele>296.79998779297</ele>
        <time>2020-10-18T07:51:25.000Z</time>
      </trkpt>
      <trkpt lat="43.97329" lon="2.72548">
        <ele>298</ele>
        <time>2020-10-18T07:51:40.000Z</time>
      </trkpt>
      <trkpt lat="43.97337" lon="2.72572">
        <ele>298.60000610352</ele>
        <time>2020-10-18T07:51:55.000Z</time>
      </trkpt>
      <trkpt lat="43.97345" lon="2.72595">
        <ele>298.60000610352</ele>
        <time>2020-10-18T07:52:10.000Z</time>
      </trkpt>
      <trkpt lat="43.97344" lon="2.72614">
        <ele>298.20001220703</ele>
        <time>2020-10-18T07:52:38.000Z</time>
      </trkpt>
      <trkpt lat="43.97342" lon="2.72641">
        <ele>297.60000610352</ele>
        <time>2020-10-18T07:52:51.000Z</time>
      </trkpt>
      <trkpt lat="43.97341" lon="2.72667">
        <ele>297</ele>
        <time>2020-10-18T07:53:04.000Z</time>
      </trkpt>
      <trkpt lat="43.97339" lon="2.72692">
        <ele>295.79998779297</ele>
        <time>2020-10-18T07:53:17.000Z</time>
      </trkpt>
      <trkpt lat="43.97341" lon="2.72719">
        <ele>295.20001220703</ele>
        <time>2020-10-18T07:53:32.000Z</time>
      </trkpt>
      <trkpt lat="43.97342" lon="2.72744">
        <ele>294.20001220703</ele>
        <time>2020-10-18T07:53:45.000Z</time>
      </trkpt>
      <trkpt lat="43.97343" lon="2.72769">
        <ele>292.79998779297</ele>
        <time>2020-10-18T07:53:58.000Z</time>
      </trkpt>
      <trkpt lat="43.97344" lon="2.72794">
        <ele>292</ele>
        <time>2020-10-18T07:54:11.000Z</time>
      </trkpt>
      <trkpt lat="43.97346" lon="2.7282">
        <ele>291</ele>
        <time>2020-10-18T07:54:24.000Z</time>
      </trkpt>
      <trkpt lat="43.97349" lon="2.72845">
        <ele>290.60000610352</ele>
        <time>2020-10-18T07:54:36.000Z</time>
      </trkpt>
      <trkpt lat="43.9735" lon="2.72871">
        <ele>290</ele>
        <time>2020-10-18T07:54:49.000Z</time>
      </trkpt>
      <trkpt lat="43.9735" lon="2.72896">
        <ele>289</ele>
        <time>2020-10-18T07:55:02.000Z</time>
      </trkpt>
      <trkpt lat="43.97355" lon="2.72921">
        <ele>289.20001220703</ele>
        <time>2020-10-18T07:55:17.000Z</time>
      </trkpt>
      <trkpt lat="43.97362" lon="2.72946">
        <ele>291</ele>
        <time>2020-10-18T07:55:33.000Z</time>
      </trkpt>
      <trkpt lat="43.97363" lon="2.72971">
        <ele>290.79998779297</ele>
        <time>2020-10-18T07:55:46.000Z</time>
      </trkpt>
      <trkpt lat="43.97364" lon="2.72996">
        <ele>290.60000610352</ele>
        <time>2020-10-18T07:56:00.000Z</time>
      </trkpt>
      <trkpt lat="43.97366" lon="2.73022">
        <ele>290.60000610352</ele>
        <time>2020-10-18T07:56:14.000Z</time>
      </trkpt>
      <trkpt lat="43.97371" lon="2.73047">
        <ele>291.60000610352</ele>
        <time>2020-10-18T07:56:28.000Z</time>
      </trkpt>
      <trkpt lat="43.97377" lon="2.73071">
        <ele>293</ele>
        <time>2020-10-18T07:56:42.000Z</time>
      </trkpt>
      <trkpt lat="43.97383" lon="2.73094">
        <ele>294.60000610352</ele>
        <time>2020-10-18T07:56:56.000Z</time>
      </trkpt>
      <trkpt lat="43.9739" lon="2.73118">
        <ele>295.79998779297</ele>
        <time>2020-10-18T07:57:08.000Z</time>
      </trkpt>
      <trkpt lat="43.97396" lon="2.73142">
        <ele>296.60000610352</ele>
        <time>2020-10-18T07:57:22.000Z</time>
      </trkpt>
      <trkpt lat="43.97401" lon="2.73168">
        <ele>297</ele>
        <time>2020-10-18T07:57:35.000Z</time>
      </trkpt>
      <trkpt lat="43.97406" lon="2.73192">
        <ele>297.39999389648</ele>
        <time>2020-10-18T07:57:49.000Z</time>
      </trkpt>
      <trkpt lat="43.97408" lon="2.73218">
        <ele>296.79998779297</ele>
        <time>2020-10-18T07:58:02.000Z</time>
      </trkpt>
      <trkpt lat="43.97413" lon="2.73244">
        <ele>297.60000610352</ele>
        <time>2020-10-18T07:58:20.000Z</time>
      </trkpt>
      <trkpt lat="43.97421" lon="2.73267">
        <ele>298.79998779297</ele>
        <time>2020-10-18T07:58:34.000Z</time>
      </trkpt>
      <trkpt lat="43.97427" lon="2.73291">
        <ele>298.79998779297</ele>
        <time>2020-10-18T07:58:47.000Z</time>
      </trkpt>
      <trkpt lat="43.9743" lon="2.73315">
        <ele>297</ele>
        <time>2020-10-18T07:59:01.000Z</time>
      </trkpt>
      <trkpt lat="43.97429" lon="2.73341">
        <ele>294.60000610352</ele>
        <time>2020-10-18T07:59:13.000Z</time>
      </trkpt>
      <trkpt lat="43.9743" lon="2.73367">
        <ele>292</ele>
        <time>2020-10-18T07:59:26.000Z</time>
      </trkpt>
      <trkpt lat="43.97432" lon="2.73392">
        <ele>290</ele>
        <time>2020-10-18T07:59:40.000Z</time>
      </trkpt>
      <trkpt lat="43.97439" lon="2.73416">
        <ele>289.60000610352</ele>
        <time>2020-10-18T07:59:53.000Z</time>
      </trkpt>
      <trkpt lat="43.97446" lon="2.7344">
        <ele>290</ele>
        <time>2020-10-18T08:00:06.000Z</time>
      </trkpt>
      <trkpt lat="43.97444" lon="2.73465">
        <ele>286.79998779297</ele>
        <time>2020-10-18T08:00:19.000Z</time>
      </trkpt>
      <trkpt lat="43.97446" lon="2.7349">
        <ele>285.20001220703</ele>
        <time>2020-10-18T08:00:39.000Z</time>
      </trkpt>
      <trkpt lat="43.97443" lon="2.73516">
        <ele>281.79998779297</ele>
        <time>2020-10-18T08:00:52.000Z</time>
      </trkpt>
      <trkpt lat="43.97435" lon="2.73539">
        <ele>278.60000610352</ele>
        <time>2020-10-18T08:01:10.000Z</time>
      </trkpt>
      <trkpt lat="43.97429" lon="2.73564">
        <ele>276</ele>
        <time>2020-10-18T08:01:23.000Z</time>
      </trkpt>
      <trkpt lat="43.97427" lon="2.73591">
        <ele>274.79998779297</ele>
        <time>2020-10-18T08:01:36.000Z</time>
      </trkpt>
      <trkpt lat="43.97426" lon="2.73616">
        <ele>274.20001220703</ele>
        <time>2020-10-18T08:01:49.000Z</time>
      </trkpt>
      <trkpt lat="43.97427" lon="2.73642">
        <ele>273.60000610352</ele>
        <time>2020-10-18T08:02:02.000Z</time>
      </trkpt>
      <trkpt lat="43.97425" lon="2.73668">
        <ele>273</ele>
        <time>2020-10-18T08:02:15.000Z</time>
      </trkpt>
      <trkpt lat="43.97422" lon="2.73681">
        <ele>272.39999389648</ele>
        <time>2020-10-18T08:02:22.000Z</time>
      </trkpt>
      <trkpt lat="43.97418" lon="2.73684">
        <ele>271.79998779297</ele>
        <time>2020-10-18T08:02:25.000Z</time>
      </trkpt>
      <trkpt lat="43.97417" lon="2.73707">
        <ele>271.39999389648</ele>
        <time>2020-10-18T08:03:00.000Z</time>
      </trkpt>
      <trkpt lat="43.97416" lon="2.73733">
        <ele>271</ele>
        <time>2020-10-18T08:03:15.000Z</time>
      </trkpt>
      <trkpt lat="43.97412" lon="2.73759">
        <ele>271.20001220703</ele>
        <time>2020-10-18T08:03:29.000Z</time>
      </trkpt>
      <trkpt lat="43.97405" lon="2.73786">
        <ele>272</ele>
        <time>2020-10-18T08:03:41.000Z</time>
      </trkpt>
      <trkpt lat="43.97398" lon="2.73811">
        <ele>271.79998779297</ele>
        <time>2020-10-18T08:03:51.000Z</time>
      </trkpt>
      <trkpt lat="43.9739" lon="2.73835">
        <ele>270.39999389648</ele>
        <time>2020-10-18T08:03:58.000Z</time>
      </trkpt>
      <trkpt lat="43.97381" lon="2.73857">
        <ele>271.79998779297</ele>
        <time>2020-10-18T08:04:05.000Z</time>
      </trkpt>
      <trkpt lat="43.97379" lon="2.73863">
        <ele>272</ele>
        <time>2020-10-18T08:04:07.000Z</time>
      </trkpt>
      <trkpt lat="43.9737" lon="2.73885">
        <ele>273</ele>
        <time>2020-10-18T08:04:31.000Z</time>
      </trkpt>
      <trkpt lat="43.97359" lon="2.73908">
        <ele>273.60000610352</ele>
        <time>2020-10-18T08:04:45.000Z</time>
      </trkpt>
      <trkpt lat="43.97345" lon="2.73927">
        <ele>275.20001220703</ele>
        <time>2020-10-18T08:04:52.000Z</time>
      </trkpt>
      <trkpt lat="43.97333" lon="2.7395">
        <ele>279.60000610352</ele>
        <time>2020-10-18T08:04:59.000Z</time>
      </trkpt>
      <trkpt lat="43.97319" lon="2.73967">
        <ele>282</ele>
        <time>2020-10-18T08:05:05.000Z</time>
      </trkpt>
      <trkpt lat="43.97305" lon="2.73986">
        <ele>278.39999389648</ele>
        <time>2020-10-18T08:05:12.000Z</time>
      </trkpt>
      <trkpt lat="43.97291" lon="2.74007">
        <ele>275.60000610352</ele>
        <time>2020-10-18T08:05:19.000Z</time>
      </trkpt>
      <trkpt lat="43.9728" lon="2.74028">
        <ele>273.79998779297</ele>
        <time>2020-10-18T08:05:26.000Z</time>
      </trkpt>
      <trkpt lat="43.97265" lon="2.74047">
        <ele>273.39999389648</ele>
        <time>2020-10-18T08:05:33.000Z</time>
      </trkpt>
      <trkpt lat="43.9725" lon="2.74068">
        <ele>274</ele>
        <time>2020-10-18T08:05:40.000Z</time>
      </trkpt>
      <trkpt lat="43.97236" lon="2.74087">
        <ele>274.79998779297</ele>
        <time>2020-10-18T08:05:47.000Z</time>
      </trkpt>
      <trkpt lat="43.97222" lon="2.74108">
        <ele>275.79998779297</ele>
        <time>2020-10-18T08:05:55.000Z</time>
      </trkpt>
      <trkpt lat="43.9721" lon="2.74127">
        <ele>276.60000610352</ele>
        <time>2020-10-18T08:06:04.000Z</time>
      </trkpt>
      <trkpt lat="43.97196" lon="2.74143">
        <ele>276.79998779297</ele>
        <time>2020-10-18T08:06:17.000Z</time>
      </trkpt>
      <trkpt lat="43.97194" lon="2.74144">
        <ele>276.60000610352</ele>
        <time>2020-10-18T08:06:19.000Z</time>
      </trkpt>
      <trkpt lat="43.97177" lon="2.74156">
        <ele>276.39999389648</ele>
        <time>2020-10-18T08:06:32.000Z</time>
      </trkpt>
      <trkpt lat="43.97161" lon="2.74169">
        <ele>275.60000610352</ele>
        <time>2020-10-18T08:06:46.000Z</time>
      </trkpt>
      <trkpt lat="43.97145" lon="2.74182">
        <ele>276</ele>
        <time>2020-10-18T08:06:58.000Z</time>
      </trkpt>
      <trkpt lat="43.97128" lon="2.74194">
        <ele>276.20001220703</ele>
        <time>2020-10-18T08:07:10.000Z</time>
      </trkpt>
      <trkpt lat="43.97111" lon="2.74202">
        <ele>276.60000610352</ele>
        <time>2020-10-18T08:07:22.000Z</time>
      </trkpt>
      <trkpt lat="43.97093" lon="2.74208">
        <ele>277.60000610352</ele>
        <time>2020-10-18T08:07:34.000Z</time>
      </trkpt>
      <trkpt lat="43.97075" lon="2.74214">
        <ele>278.79998779297</ele>
        <time>2020-10-18T08:07:45.000Z</time>
      </trkpt>
      <trkpt lat="43.97056" lon="2.74222">
        <ele>279</ele>
        <time>2020-10-18T08:07:53.000Z</time>
      </trkpt>
      <trkpt lat="43.97038" lon="2.74229">
        <ele>278.79998779297</ele>
        <time>2020-10-18T08:08:04.000Z</time>
      </trkpt>
      <trkpt lat="43.97022" lon="2.74241">
        <ele>279.39999389648</ele>
        <time>2020-10-18T08:08:16.000Z</time>
      </trkpt>
      <trkpt lat="43.97004" lon="2.7425">
        <ele>280.79998779297</ele>
        <time>2020-10-18T08:08:28.000Z</time>
      </trkpt>
      <trkpt lat="43.96986" lon="2.74247">
        <ele>280.60000610352</ele>
        <time>2020-10-18T08:08:38.000Z</time>
      </trkpt>
      <trkpt lat="43.96968" lon="2.74243">
        <ele>280.39999389648</ele>
        <time>2020-10-18T08:08:53.000Z</time>
      </trkpt>
      <trkpt lat="43.96948" lon="2.74243">
        <ele>280.60000610352</ele>
        <time>2020-10-18T08:09:08.000Z</time>
      </trkpt>
      <trkpt lat="43.96929" lon="2.74243">
        <ele>280.79998779297</ele>
        <time>2020-10-18T08:09:21.000Z</time>
      </trkpt>
      <trkpt lat="43.9691" lon="2.74245">
        <ele>281.39999389648</ele>
        <time>2020-10-18T08:09:34.000Z</time>
      </trkpt>
      <trkpt lat="43.96893" lon="2.74246">
        <ele>281.60000610352</ele>
        <time>2020-10-18T08:10:00.000Z</time>
      </trkpt>
      <trkpt lat="43.96876" lon="2.74249">
        <ele>282.20001220703</ele>
        <time>2020-10-18T08:10:39.000Z</time>
      </trkpt>
      <trkpt lat="43.96857" lon="2.74251">
        <ele>282.60000610352</ele>
        <time>2020-10-18T08:10:53.000Z</time>
      </trkpt>
      <trkpt lat="43.96838" lon="2.74254">
        <ele>281.79998779297</ele>
        <time>2020-10-18T08:11:07.000Z</time>
      </trkpt>
      <trkpt lat="43.9682" lon="2.74255">
        <ele>280.79998779297</ele>
        <time>2020-10-18T08:11:23.000Z</time>
      </trkpt>
      <trkpt lat="43.9681" lon="2.74254">
        <ele>280.20001220703</ele>
        <time>2020-10-18T08:11:31.000Z</time>
      </trkpt>
      <trkpt lat="43.96791" lon="2.74257">
        <ele>279.60000610352</ele>
        <time>2020-10-18T08:11:43.000Z</time>
      </trkpt>
      <trkpt lat="43.96772" lon="2.7426">
        <ele>279</ele>
        <time>2020-10-18T08:11:56.000Z</time>
      </trkpt>
      <trkpt lat="43.96754" lon="2.74261">
        <ele>279.39999389648</ele>
        <time>2020-10-18T08:12:08.000Z</time>
      </trkpt>
      <trkpt lat="43.96736" lon="2.74263">
        <ele>279.79998779297</ele>
        <time>2020-10-18T08:12:21.000Z</time>
      </trkpt>
      <trkpt lat="43.96717" lon="2.74267">
        <ele>280.79998779297</ele>
        <time>2020-10-18T08:12:33.000Z</time>
      </trkpt>
      <trkpt lat="43.96698" lon="2.7427">
        <ele>281.20001220703</ele>
        <time>2020-10-18T08:12:46.000Z</time>
      </trkpt>
      <trkpt lat="43.9668" lon="2.74272">
        <ele>281.39999389648</ele>
        <time>2020-10-18T08:12:59.000Z</time>
      </trkpt>
      <trkpt lat="43.96661" lon="2.74274">
        <ele>281.60000610352</ele>
        <time>2020-10-18T08:13:12.000Z</time>
      </trkpt>
      <trkpt lat="43.96649" lon="2.74273">
        <ele>281.39999389648</ele>
        <time>2020-10-18T08:13:22.000Z</time>
      </trkpt>
      <trkpt lat="43.96645" lon="2.74279">
        <ele>282.39999389648</ele>
        <time>2020-10-18T08:13:28.000Z</time>
      </trkpt>
      <trkpt lat="43.96626" lon="2.74285">
        <ele>282.60000610352</ele>
        <time>2020-10-18T08:13:41.000Z</time>
      </trkpt>
      <trkpt lat="43.96609" lon="2.74289">
        <ele>282.39999389648</ele>
        <time>2020-10-18T08:13:53.000Z</time>
      </trkpt>
      <trkpt lat="43.9659" lon="2.74294">
        <ele>283.79998779297</ele>
        <time>2020-10-18T08:14:06.000Z</time>
      </trkpt>
      <trkpt lat="43.96572" lon="2.74302">
        <ele>285.39999389648</ele>
        <time>2020-10-18T08:14:19.000Z</time>
      </trkpt>
      <trkpt lat="43.96556" lon="2.7431">
        <ele>285.39999389648</ele>
        <time>2020-10-18T08:14:31.000Z</time>
      </trkpt>
      <trkpt lat="43.96539" lon="2.74318">
        <ele>285.39999389648</ele>
        <time>2020-10-18T08:14:44.000Z</time>
      </trkpt>
      <trkpt lat="43.96522" lon="2.74328">
        <ele>285.79998779297</ele>
        <time>2020-10-18T08:14:57.000Z</time>
      </trkpt>
      <trkpt lat="43.96505" lon="2.74339">
        <ele>288</ele>
        <time>2020-10-18T08:15:10.000Z</time>
      </trkpt>
      <trkpt lat="43.96489" lon="2.74352">
        <ele>290.60000610352</ele>
        <time>2020-10-18T08:15:24.000Z</time>
      </trkpt>
      <trkpt lat="43.96472" lon="2.74363">
        <ele>293.20001220703</ele>
        <time>2020-10-18T08:15:38.000Z</time>
      </trkpt>
      <trkpt lat="43.96457" lon="2.74378">
        <ele>294.20001220703</ele>
        <time>2020-10-18T08:15:50.000Z</time>
      </trkpt>
      <trkpt lat="43.96446" lon="2.74399">
        <ele>294.60000610352</ele>
        <time>2020-10-18T08:16:10.000Z</time>
      </trkpt>
      <trkpt lat="43.96431" lon="2.74414">
        <ele>296.20001220703</ele>
        <time>2020-10-18T08:16:24.000Z</time>
      </trkpt>
      <trkpt lat="43.96416" lon="2.74429">
        <ele>300</ele>
        <time>2020-10-18T08:16:41.000Z</time>
      </trkpt>
      <trkpt lat="43.96412" lon="2.74436">
        <ele>301.20001220703</ele>
        <time>2020-10-18T08:16:48.000Z</time>
      </trkpt>
      <trkpt lat="43.964" lon="2.74456">
        <ele>304.20001220703</ele>
        <time>2020-10-18T08:17:00.000Z</time>
      </trkpt>
      <trkpt lat="43.96394" lon="2.74479">
        <ele>305.39999389648</ele>
        <time>2020-10-18T08:17:12.000Z</time>
      </trkpt>
      <trkpt lat="43.96382" lon="2.74495">
        <ele>307.20001220703</ele>
        <time>2020-10-18T08:17:24.000Z</time>
      </trkpt>
      <trkpt lat="43.96373" lon="2.74489">
        <ele>308.60000610352</ele>
        <time>2020-10-18T08:18:09.000Z</time>
      </trkpt>
      <trkpt lat="43.96369" lon="2.74484">
        <ele>309.20001220703</ele>
        <time>2020-10-18T08:18:22.000Z</time>
      </trkpt>
      <trkpt lat="43.96369" lon="2.74461">
        <ele>309.20001220703</ele>
        <time>2020-10-18T08:18:34.000Z</time>
      </trkpt>
      <trkpt lat="43.96375" lon="2.74448">
        <ele>308.39999389648</ele>
        <time>2020-10-18T08:18:41.000Z</time>
      </trkpt>
      <trkpt lat="43.9638" lon="2.74423">
        <ele>306.79998779297</ele>
        <time>2020-10-18T08:18:55.000Z</time>
      </trkpt>
      <trkpt lat="43.96382" lon="2.74397">
        <ele>303.79998779297</ele>
        <time>2020-10-18T08:19:08.000Z</time>
      </trkpt>
      <trkpt lat="43.9638" lon="2.74372">
        <ele>301.39999389648</ele>
        <time>2020-10-18T08:19:20.000Z</time>
      </trkpt>
      <trkpt lat="43.96378" lon="2.74346">
        <ele>300.20001220703</ele>
        <time>2020-10-18T08:19:34.000Z</time>
      </trkpt>
      <trkpt lat="43.96372" lon="2.74323">
        <ele>299.60000610352</ele>
        <time>2020-10-18T08:19:48.000Z</time>
      </trkpt>
      <trkpt lat="43.9636" lon="2.74304">
        <ele>299.39999389648</ele>
        <time>2020-10-18T08:20:01.000Z</time>
      </trkpt>
      <trkpt lat="43.96347" lon="2.74284">
        <ele>299.60000610352</ele>
        <time>2020-10-18T08:20:14.000Z</time>
      </trkpt>
      <trkpt lat="43.96342" lon="2.74258">
        <ele>298.39999389648</ele>
        <time>2020-10-18T08:20:26.000Z</time>
      </trkpt>
      <trkpt lat="43.96336" lon="2.74234">
        <ele>297.39999389648</ele>
        <time>2020-10-18T08:20:42.000Z</time>
      </trkpt>
      <trkpt lat="43.96334" lon="2.7421">
        <ele>296.60000610352</ele>
        <time>2020-10-18T08:20:56.000Z</time>
      </trkpt>
      <trkpt lat="43.96326" lon="2.74186">
        <ele>296.60000610352</ele>
        <time>2020-10-18T08:21:09.000Z</time>
      </trkpt>
      <trkpt lat="43.96329" lon="2.74166">
        <ele>295.39999389648</ele>
        <time>2020-10-18T08:21:17.000Z</time>
      </trkpt>
      <trkpt lat="43.96319" lon="2.74146">
        <ele>294.39999389648</ele>
        <time>2020-10-18T08:21:29.000Z</time>
      </trkpt>
      <trkpt lat="43.96302" lon="2.74137">
        <ele>295.20001220703</ele>
        <time>2020-10-18T08:21:41.000Z</time>
      </trkpt>
      <trkpt lat="43.96285" lon="2.74126">
        <ele>295.79998779297</ele>
        <time>2020-10-18T08:21:53.000Z</time>
      </trkpt>
      <trkpt lat="43.96269" lon="2.74116">
        <ele>295.79998779297</ele>
        <time>2020-10-18T08:22:06.000Z</time>
      </trkpt>
      <trkpt lat="43.9625" lon="2.74119">
        <ele>296.39999389648</ele>
        <time>2020-10-18T08:22:18.000Z</time>
      </trkpt>
      <trkpt lat="43.96233" lon="2.74127">
        <ele>297.39999389648</ele>
        <time>2020-10-18T08:22:31.000Z</time>
      </trkpt>
      <trkpt lat="43.96219" lon="2.74145">
        <ele>298.39999389648</ele>
        <time>2020-10-18T08:22:44.000Z</time>
      </trkpt>
      <trkpt lat="43.9621" lon="2.74167">
        <ele>300</ele>
        <time>2020-10-18T08:22:57.000Z</time>
      </trkpt>
      <trkpt lat="43.96198" lon="2.74186">
        <ele>301.39999389648</ele>
        <time>2020-10-18T08:23:10.000Z</time>
      </trkpt>
      <trkpt lat="43.9619" lon="2.74209">
        <ele>303.60000610352</ele>
        <time>2020-10-18T08:23:23.000Z</time>
      </trkpt>
      <trkpt lat="43.96187" lon="2.74234">
        <ele>306</ele>
        <time>2020-10-18T08:23:36.000Z</time>
      </trkpt>
      <trkpt lat="43.96182" lon="2.74258">
        <ele>308</ele>
        <time>2020-10-18T08:23:49.000Z</time>
      </trkpt>
      <trkpt lat="43.9618" lon="2.74283">
        <ele>309.60000610352</ele>
        <time>2020-10-18T08:24:03.000Z</time>
      </trkpt>
      <trkpt lat="43.96182" lon="2.7431">
        <ele>311.60000610352</ele>
        <time>2020-10-18T08:24:17.000Z</time>
      </trkpt>
      <trkpt lat="43.96183" lon="2.74336">
        <ele>313.79998779297</ele>
        <time>2020-10-18T08:24:31.000Z</time>
      </trkpt>
      <trkpt lat="43.96184" lon="2.74362">
        <ele>315.39999389648</ele>
        <time>2020-10-18T08:24:49.000Z</time>
      </trkpt>
      <trkpt lat="43.96184" lon="2.74376">
        <ele>316.20001220703</ele>
        <time>2020-10-18T08:24:58.000Z</time>
      </trkpt>
      <trkpt lat="43.96187" lon="2.74403">
        <ele>317.79998779297</ele>
        <time>2020-10-18T08:25:12.000Z</time>
      </trkpt>
      <trkpt lat="43.96188" lon="2.74429">
        <ele>320</ele>
        <time>2020-10-18T08:25:26.000Z</time>
      </trkpt>
      <trkpt lat="43.9619" lon="2.74456">
        <ele>322.39999389648</ele>
        <time>2020-10-18T08:25:40.000Z</time>
      </trkpt>
      <trkpt lat="43.96188" lon="2.74482">
        <ele>325</ele>
        <time>2020-10-18T08:25:54.000Z</time>
      </trkpt>
      <trkpt lat="43.96182" lon="2.74506">
        <ele>328</ele>
        <time>2020-10-18T08:26:14.000Z</time>
      </trkpt>
      <trkpt lat="43.96178" lon="2.74532">
        <ele>332</ele>
        <time>2020-10-18T08:26:30.000Z</time>
      </trkpt>
      <trkpt lat="43.96177" lon="2.74557">
        <ele>335.79998779297</ele>
        <time>2020-10-18T08:26:49.000Z</time>
      </trkpt>
      <trkpt lat="43.96177" lon="2.74584">
        <ele>339.60000610352</ele>
        <time>2020-10-18T08:27:03.000Z</time>
      </trkpt>
      <trkpt lat="43.96183" lon="2.74609">
        <ele>343.20001220703</ele>
        <time>2020-10-18T08:27:18.000Z</time>
      </trkpt>
      <trkpt lat="43.96187" lon="2.74634">
        <ele>347.20001220703</ele>
        <time>2020-10-18T08:27:32.000Z</time>
      </trkpt>
      <trkpt lat="43.96186" lon="2.74659">
        <ele>351.39999389648</ele>
        <time>2020-10-18T08:27:45.000Z</time>
      </trkpt>
      <trkpt lat="43.96176" lon="2.7468">
        <ele>354.20001220703</ele>
        <time>2020-10-18T08:28:01.000Z</time>
      </trkpt>
      <trkpt lat="43.96165" lon="2.747">
        <ele>356.39999389648</ele>
        <time>2020-10-18T08:28:16.000Z</time>
      </trkpt>
      <trkpt lat="43.96161" lon="2.74726">
        <ele>359</ele>
        <time>2020-10-18T08:28:32.000Z</time>
      </trkpt>
      <trkpt lat="43.9616" lon="2.74752">
        <ele>361.39999389648</ele>
        <time>2020-10-18T08:28:47.000Z</time>
      </trkpt>
      <trkpt lat="43.96161" lon="2.74777">
        <ele>362.79998779297</ele>
        <time>2020-10-18T08:29:02.000Z</time>
      </trkpt>
      <trkpt lat="43.96163" lon="2.74803">
        <ele>364</ele>
        <time>2020-10-18T08:29:17.000Z</time>
      </trkpt>
      <trkpt lat="43.9617" lon="2.74828">
        <ele>363</ele>
        <time>2020-10-18T08:29:32.000Z</time>
      </trkpt>
      <trkpt lat="43.96177" lon="2.74851">
        <ele>362.20001220703</ele>
        <time>2020-10-18T08:29:45.000Z</time>
      </trkpt>
      <trkpt lat="43.96183" lon="2.74875">
        <ele>362.39999389648</ele>
        <time>2020-10-18T08:30:00.000Z</time>
      </trkpt>
      <trkpt lat="43.96192" lon="2.74897">
        <ele>363.39999389648</ele>
        <time>2020-10-18T08:30:17.000Z</time>
      </trkpt>
      <trkpt lat="43.96204" lon="2.74915">
        <ele>366.39999389648</ele>
        <time>2020-10-18T08:30:32.000Z</time>
      </trkpt>
      <trkpt lat="43.96211" lon="2.74939">
        <ele>369.20001220703</ele>
        <time>2020-10-18T08:30:46.000Z</time>
      </trkpt>
      <trkpt lat="43.96217" lon="2.74963">
        <ele>370.39999389648</ele>
        <time>2020-10-18T08:30:59.000Z</time>
      </trkpt>
      <trkpt lat="43.96223" lon="2.74989">
        <ele>371</ele>
        <time>2020-10-18T08:31:13.000Z</time>
      </trkpt>
      <trkpt lat="43.96229" lon="2.75013">
        <ele>372.60000610352</ele>
        <time>2020-10-18T08:31:26.000Z</time>
      </trkpt>
      <trkpt lat="43.96233" lon="2.75038">
        <ele>374.60000610352</ele>
        <time>2020-10-18T08:31:39.000Z</time>
      </trkpt>
      <trkpt lat="43.96237" lon="2.75064">
        <ele>375.79998779297</ele>
        <time>2020-10-18T08:31:53.000Z</time>
      </trkpt>
      <trkpt lat="43.96243" lon="2.75089">
        <ele>377.79998779297</ele>
        <time>2020-10-18T08:32:06.000Z</time>
      </trkpt>
      <trkpt lat="43.96251" lon="2.75112">
        <ele>380.39999389648</ele>
        <time>2020-10-18T08:32:19.000Z</time>
      </trkpt>
      <trkpt lat="43.96257" lon="2.75137">
        <ele>382.20001220703</ele>
        <time>2020-10-18T08:32:33.000Z</time>
      </trkpt>
      <trkpt lat="43.96262" lon="2.75145">
        <ele>384</ele>
        <time>2020-10-18T08:34:00.000Z</time>
      </trkpt>
      <trkpt lat="43.96262" lon="2.75147">
        <ele>384.39999389648</ele>
        <time>2020-10-18T08:35:26.000Z</time>
      </trkpt>
      <trkpt lat="43.96263" lon="2.75154">
        <ele>384.39999389648</ele>
        <time>2020-10-18T08:37:23.000Z</time>
      </trkpt>
      <trkpt lat="43.96262" lon="2.75151">
        <ele>384.20001220703</ele>
        <time>2020-10-18T08:40:20.000Z</time>
      </trkpt>
      <trkpt lat="43.96273" lon="2.75165">
        <ele>388.79998779297</ele>
        <time>2020-10-18T08:40:46.000Z</time>
      </trkpt>
      <trkpt lat="43.96286" lon="2.75184">
        <ele>391.20001220703</ele>
        <time>2020-10-18T08:41:03.000Z</time>
      </trkpt>
      <trkpt lat="43.96296" lon="2.75206">
        <ele>392</ele>
        <time>2020-10-18T08:41:18.000Z</time>
      </trkpt>
      <trkpt lat="43.9631" lon="2.75223">
        <ele>394.60000610352</ele>
        <time>2020-10-18T08:41:34.000Z</time>
      </trkpt>
      <trkpt lat="43.96325" lon="2.75237">
        <ele>398</ele>
        <time>2020-10-18T08:41:48.000Z</time>
      </trkpt>
      <trkpt lat="43.9634" lon="2.75252">
        <ele>400.79998779297</ele>
        <time>2020-10-18T08:42:02.000Z</time>
      </trkpt>
      <trkpt lat="43.96355" lon="2.75268">
        <ele>405.79998779297</ele>
        <time>2020-10-18T08:42:18.000Z</time>
      </trkpt>
      <trkpt lat="43.9637" lon="2.75285">
        <ele>410.79998779297</ele>
        <time>2020-10-18T08:42:33.000Z</time>
      </trkpt>
      <trkpt lat="43.96385" lon="2.75298">
        <ele>415.60000610352</ele>
        <time>2020-10-18T08:42:47.000Z</time>
      </trkpt>
      <trkpt lat="43.96404" lon="2.75297">
        <ele>420.20001220703</ele>
        <time>2020-10-18T08:43:02.000Z</time>
      </trkpt>
      <trkpt lat="43.96422" lon="2.75292">
        <ele>420.79998779297</ele>
        <time>2020-10-18T08:43:17.000Z</time>
      </trkpt>
      <trkpt lat="43.9644" lon="2.7529">
        <ele>422</ele>
        <time>2020-10-18T08:43:32.000Z</time>
      </trkpt>
      <trkpt lat="43.96457" lon="2.75296">
        <ele>422.60000610352</ele>
        <time>2020-10-18T08:43:46.000Z</time>
      </trkpt>
      <trkpt lat="43.9647" lon="2.75313">
        <ele>425.79998779297</ele>
        <time>2020-10-18T08:44:00.000Z</time>
      </trkpt>
      <trkpt lat="43.96478" lon="2.75337">
        <ele>430.60000610352</ele>
        <time>2020-10-18T08:44:15.000Z</time>
      </trkpt>
      <trkpt lat="43.9648" lon="2.75341">
        <ele>431.39999389648</ele>
        <time>2020-10-18T08:44:18.000Z</time>
      </trkpt>
      <trkpt lat="43.96492" lon="2.7536">
        <ele>434.60000610352</ele>
        <time>2020-10-18T08:44:33.000Z</time>
      </trkpt>
      <trkpt lat="43.96507" lon="2.75375">
        <ele>436.79998779297</ele>
        <time>2020-10-18T08:44:47.000Z</time>
      </trkpt>
      <trkpt lat="43.96522" lon="2.7539">
        <ele>438.79998779297</ele>
        <time>2020-10-18T08:45:02.000Z</time>
      </trkpt>
      <trkpt lat="43.9654" lon="2.75396">
        <ele>437.60000610352</ele>
        <time>2020-10-18T08:45:14.000Z</time>
      </trkpt>
      <trkpt lat="43.96556" lon="2.7541">
        <ele>438.20001220703</ele>
        <time>2020-10-18T08:45:27.000Z</time>
      </trkpt>
      <trkpt lat="43.96566" lon="2.7543">
        <ele>439.79998779297</ele>
        <time>2020-10-18T08:45:40.000Z</time>
      </trkpt>
      <trkpt lat="43.96576" lon="2.75453">
        <ele>440.20001220703</ele>
        <time>2020-10-18T08:45:52.000Z</time>
      </trkpt>
      <trkpt lat="43.96586" lon="2.75476">
        <ele>440.79998779297</ele>
        <time>2020-10-18T08:46:05.000Z</time>
      </trkpt>
      <trkpt lat="43.96595" lon="2.75498">
        <ele>441</ele>
        <time>2020-10-18T08:46:19.000Z</time>
      </trkpt>
      <trkpt lat="43.96602" lon="2.75515">
        <ele>439.79998779297</ele>
        <time>2020-10-18T08:46:29.000Z</time>
      </trkpt>
      <trkpt lat="43.96608" lon="2.75536">
        <ele>437.79998779297</ele>
        <time>2020-10-18T08:47:31.000Z</time>
      </trkpt>
      <trkpt lat="43.96609" lon="2.75537">
        <ele>437.79998779297</ele>
        <time>2020-10-18T08:47:32.000Z</time>
      </trkpt>
      <trkpt lat="43.96617" lon="2.75559">
        <ele>437</ele>
        <time>2020-10-18T08:47:49.000Z</time>
      </trkpt>
      <trkpt lat="43.96626" lon="2.75578">
        <ele>436.60000610352</ele>
        <time>2020-10-18T08:48:42.000Z</time>
      </trkpt>
      <trkpt lat="43.96635" lon="2.75596">
        <ele>436.39999389648</ele>
        <time>2020-10-18T08:49:28.000Z</time>
      </trkpt>
      <trkpt lat="43.96642" lon="2.75621">
        <ele>435.60000610352</ele>
        <time>2020-10-18T08:49:54.000Z</time>
      </trkpt>
      <trkpt lat="43.96652" lon="2.75642">
        <ele>434.60000610352</ele>
        <time>2020-10-18T08:50:07.000Z</time>
      </trkpt>
      <trkpt lat="43.96667" lon="2.75662">
        <ele>434.60000610352</ele>
        <time>2020-10-18T08:50:17.000Z</time>
      </trkpt>
      <trkpt lat="43.96683" lon="2.75675">
        <ele>435.39999389648</ele>
        <time>2020-10-18T08:50:25.000Z</time>
      </trkpt>
      <trkpt lat="43.96703" lon="2.75683">
        <ele>437</ele>
        <time>2020-10-18T08:50:33.000Z</time>
      </trkpt>
      <trkpt lat="43.96722" lon="2.75682">
        <ele>439.79998779297</ele>
        <time>2020-10-18T08:50:39.000Z</time>
      </trkpt>
      <trkpt lat="43.96743" lon="2.75679">
        <ele>443</ele>
        <time>2020-10-18T08:50:46.000Z</time>
      </trkpt>
      <trkpt lat="43.96761" lon="2.75679">
        <ele>445.60000610352</ele>
        <time>2020-10-18T08:50:52.000Z</time>
      </trkpt>
      <trkpt lat="43.96779" lon="2.75686">
        <ele>447.20001220703</ele>
        <time>2020-10-18T08:51:00.000Z</time>
      </trkpt>
      <trkpt lat="43.96794" lon="2.75703">
        <ele>447.60000610352</ele>
        <time>2020-10-18T08:51:07.000Z</time>
      </trkpt>
      <trkpt lat="43.9681" lon="2.75715">
        <ele>449.39999389648</ele>
        <time>2020-10-18T08:51:14.000Z</time>
      </trkpt>
      <trkpt lat="43.96825" lon="2.75733">
        <ele>449.79998779297</ele>
        <time>2020-10-18T08:51:21.000Z</time>
      </trkpt>
      <trkpt lat="43.96829" lon="2.7576">
        <ele>446.60000610352</ele>
        <time>2020-10-18T08:51:28.000Z</time>
      </trkpt>
      <trkpt lat="43.96828" lon="2.75788">
        <ele>447</ele>
        <time>2020-10-18T08:51:35.000Z</time>
      </trkpt>
      <trkpt lat="43.9683" lon="2.75814">
        <ele>447.60000610352</ele>
        <time>2020-10-18T08:51:46.000Z</time>
      </trkpt>
      <trkpt lat="43.96824" lon="2.75839">
        <ele>443.60000610352</ele>
        <time>2020-10-18T08:51:57.000Z</time>
      </trkpt>
      <trkpt lat="43.96824" lon="2.75865">
        <ele>443.60000610352</ele>
        <time>2020-10-18T08:52:11.000Z</time>
      </trkpt>
      <trkpt lat="43.96825" lon="2.75891">
        <ele>444.39999389648</ele>
        <time>2020-10-18T08:52:24.000Z</time>
      </trkpt>
      <trkpt lat="43.96828" lon="2.75917">
        <ele>446</ele>
        <time>2020-10-18T08:52:38.000Z</time>
      </trkpt>
      <trkpt lat="43.96831" lon="2.75942">
        <ele>446.20001220703</ele>
        <time>2020-10-18T08:52:51.000Z</time>
      </trkpt>
      <trkpt lat="43.96838" lon="2.75965">
        <ele>447.79998779297</ele>
        <time>2020-10-18T08:53:04.000Z</time>
      </trkpt>
      <trkpt lat="43.96849" lon="2.75987">
        <ele>450.60000610352</ele>
        <time>2020-10-18T08:53:17.000Z</time>
      </trkpt>
      <trkpt lat="43.96855" lon="2.76011">
        <ele>452.20001220703</ele>
        <time>2020-10-18T08:53:31.000Z</time>
      </trkpt>
      <trkpt lat="43.96862" lon="2.76036">
        <ele>453.20001220703</ele>
        <time>2020-10-18T08:53:44.000Z</time>
      </trkpt>
      <trkpt lat="43.96866" lon="2.76061">
        <ele>453.79998779297</ele>
        <time>2020-10-18T08:53:57.000Z</time>
      </trkpt>
      <trkpt lat="43.96871" lon="2.76085">
        <ele>454.79998779297</ele>
        <time>2020-10-18T08:54:11.000Z</time>
      </trkpt>
      <trkpt lat="43.96876" lon="2.7611">
        <ele>455</ele>
        <time>2020-10-18T08:54:24.000Z</time>
      </trkpt>
      <trkpt lat="43.96883" lon="2.76133">
        <ele>457.60000610352</ele>
        <time>2020-10-18T08:54:37.000Z</time>
      </trkpt>
      <trkpt lat="43.9689" lon="2.76157">
        <ele>460.20001220703</ele>
        <time>2020-10-18T08:54:59.000Z</time>
      </trkpt>
      <trkpt lat="43.96893" lon="2.76177">
        <ele>461.20001220703</ele>
        <time>2020-10-18T08:55:12.000Z</time>
      </trkpt>
      <trkpt lat="43.96899" lon="2.76202">
        <ele>460.60000610352</ele>
        <time>2020-10-18T08:55:25.000Z</time>
      </trkpt>
      <trkpt lat="43.96887" lon="2.7622">
        <ele>461</ele>
        <time>2020-10-18T08:55:38.000Z</time>
      </trkpt>
      <trkpt lat="43.96881" lon="2.76243">
        <ele>463.39999389648</ele>
        <time>2020-10-18T08:55:51.000Z</time>
      </trkpt>
      <trkpt lat="43.96888" lon="2.76266">
        <ele>463.39999389648</ele>
        <time>2020-10-18T08:56:05.000Z</time>
      </trkpt>
      <trkpt lat="43.96895" lon="2.76288">
        <ele>461.20001220703</ele>
        <time>2020-10-18T08:56:19.000Z</time>
      </trkpt>
      <trkpt lat="43.96898" lon="2.76313">
        <ele>462.20001220703</ele>
        <time>2020-10-18T08:56:33.000Z</time>
      </trkpt>
      <trkpt lat="43.96899" lon="2.76339">
        <ele>464</ele>
        <time>2020-10-18T08:56:47.000Z</time>
      </trkpt>
      <trkpt lat="43.96901" lon="2.76364">
        <ele>460.39999389648</ele>
        <time>2020-10-18T08:57:01.000Z</time>
      </trkpt>
      <trkpt lat="43.96898" lon="2.76388">
        <ele>459.20001220703</ele>
        <time>2020-10-18T08:57:23.000Z</time>
      </trkpt>
      <trkpt lat="43.96888" lon="2.7641">
        <ele>461.20001220703</ele>
        <time>2020-10-18T08:57:37.000Z</time>
      </trkpt>
      <trkpt lat="43.96878" lon="2.76432">
        <ele>462</ele>
        <time>2020-10-18T08:57:52.000Z</time>
      </trkpt>
      <trkpt lat="43.96873" lon="2.76439">
        <ele>462</ele>
        <time>2020-10-18T08:57:59.000Z</time>
      </trkpt>
      <trkpt lat="43.96862" lon="2.7646">
        <ele>461.39999389648</ele>
        <time>2020-10-18T08:58:11.000Z</time>
      </trkpt>
      <trkpt lat="43.96855" lon="2.76482">
        <ele>459</ele>
        <time>2020-10-18T08:58:25.000Z</time>
      </trkpt>
      <trkpt lat="43.96853" lon="2.76508">
        <ele>454.79998779297</ele>
        <time>2020-10-18T08:58:43.000Z</time>
      </trkpt>
      <trkpt lat="43.96853" lon="2.76533">
        <ele>449.20001220703</ele>
        <time>2020-10-18T08:58:56.000Z</time>
      </trkpt>
      <trkpt lat="43.96849" lon="2.76558">
        <ele>444.20001220703</ele>
        <time>2020-10-18T08:59:11.000Z</time>
      </trkpt>
      <trkpt lat="43.9684" lon="2.76581">
        <ele>440.20001220703</ele>
        <time>2020-10-18T08:59:24.000Z</time>
      </trkpt>
      <trkpt lat="43.9683" lon="2.7659">
        <ele>439.20001220703</ele>
        <time>2020-10-18T08:59:34.000Z</time>
      </trkpt>
      <trkpt lat="43.96822" lon="2.76615">
        <ele>434.79998779297</ele>
        <time>2020-10-18T08:59:49.000Z</time>
      </trkpt>
      <trkpt lat="43.9681" lon="2.76633">
        <ele>432.39999389648</ele>
        <time>2020-10-18T09:00:03.000Z</time>
      </trkpt>
      <trkpt lat="43.96798" lon="2.76652">
        <ele>429.20001220703</ele>
        <time>2020-10-18T09:00:17.000Z</time>
      </trkpt>
      <trkpt lat="43.96789" lon="2.76674">
        <ele>425.39999389648</ele>
        <time>2020-10-18T09:00:32.000Z</time>
      </trkpt>
      <trkpt lat="43.96779" lon="2.76696">
        <ele>422</ele>
        <time>2020-10-18T09:00:50.000Z</time>
      </trkpt>
      <trkpt lat="43.9677" lon="2.76719">
        <ele>417</ele>
        <time>2020-10-18T09:01:18.000Z</time>
      </trkpt>
      <trkpt lat="43.9676" lon="2.76742">
        <ele>410.79998779297</ele>
        <time>2020-10-18T09:01:35.000Z</time>
      </trkpt>
      <trkpt lat="43.96747" lon="2.7676">
        <ele>405.20001220703</ele>
        <time>2020-10-18T09:01:50.000Z</time>
      </trkpt>
      <trkpt lat="43.96737" lon="2.76782">
        <ele>399.60000610352</ele>
        <time>2020-10-18T09:02:03.000Z</time>
      </trkpt>
      <trkpt lat="43.96741" lon="2.76805">
        <ele>396.60000610352</ele>
        <time>2020-10-18T09:02:17.000Z</time>
      </trkpt>
      <trkpt lat="43.96755" lon="2.76822">
        <ele>396.20001220703</ele>
        <time>2020-10-18T09:02:32.000Z</time>
      </trkpt>
      <trkpt lat="43.96764" lon="2.76844">
        <ele>394.39999389648</ele>
        <time>2020-10-18T09:02:48.000Z</time>
      </trkpt>
      <trkpt lat="43.96767" lon="2.76869">
        <ele>390.60000610352</ele>
        <time>2020-10-18T09:03:04.000Z</time>
      </trkpt>
      <trkpt lat="43.96774" lon="2.76893">
        <ele>387.60000610352</ele>
        <time>2020-10-18T09:03:19.000Z</time>
      </trkpt>
      <trkpt lat="43.96779" lon="2.76918">
        <ele>383.60000610352</ele>
        <time>2020-10-18T09:03:35.000Z</time>
      </trkpt>
      <trkpt lat="43.96781" lon="2.76944">
        <ele>380</ele>
        <time>2020-10-18T09:03:49.000Z</time>
      </trkpt>
      <trkpt lat="43.96781" lon="2.7697">
        <ele>376.39999389648</ele>
        <time>2020-10-18T09:04:02.000Z</time>
      </trkpt>
      <trkpt lat="43.96784" lon="2.76995">
        <ele>373</ele>
        <time>2020-10-18T09:04:17.000Z</time>
      </trkpt>
      <trkpt lat="43.96782" lon="2.7702">
        <ele>368.79998779297</ele>
        <time>2020-10-18T09:04:30.000Z</time>
      </trkpt>
      <trkpt lat="43.96777" lon="2.77044">
        <ele>365.79998779297</ele>
        <time>2020-10-18T09:04:43.000Z</time>
      </trkpt>
      <trkpt lat="43.96779" lon="2.77069">
        <ele>362.39999389648</ele>
        <time>2020-10-18T09:05:00.000Z</time>
      </trkpt>
      <trkpt lat="43.96782" lon="2.77095">
        <ele>358.79998779297</ele>
        <time>2020-10-18T09:05:15.000Z</time>
      </trkpt>
      <trkpt lat="43.96779" lon="2.7712">
        <ele>355.20001220703</ele>
        <time>2020-10-18T09:05:32.000Z</time>
      </trkpt>
      <trkpt lat="43.96768" lon="2.77142">
        <ele>350.79998779297</ele>
        <time>2020-10-18T09:05:49.000Z</time>
      </trkpt>
      <trkpt lat="43.96759" lon="2.77165">
        <ele>345.79998779297</ele>
        <time>2020-10-18T09:06:04.000Z</time>
      </trkpt>
      <trkpt lat="43.9676" lon="2.77191">
        <ele>343</ele>
        <time>2020-10-18T09:06:17.000Z</time>
      </trkpt>
      <trkpt lat="43.96761" lon="2.77201">
        <ele>342.20001220703</ele>
        <time>2020-10-18T09:06:23.000Z</time>
      </trkpt>
      <trkpt lat="43.9675" lon="2.77222">
        <ele>337.79998779297</ele>
        <time>2020-10-18T09:06:37.000Z</time>
      </trkpt>
      <trkpt lat="43.96739" lon="2.77242">
        <ele>334.60000610352</ele>
        <time>2020-10-18T09:06:52.000Z</time>
      </trkpt>
      <trkpt lat="43.96738" lon="2.77245">
        <ele>334.20001220703</ele>
        <time>2020-10-18T09:06:54.000Z</time>
      </trkpt>
      <trkpt lat="43.96733" lon="2.77271">
        <ele>332</ele>
        <time>2020-10-18T09:07:08.000Z</time>
      </trkpt>
      <trkpt lat="43.96728" lon="2.77295">
        <ele>330.20001220703</ele>
        <time>2020-10-18T09:07:22.000Z</time>
      </trkpt>
      <trkpt lat="43.9672" lon="2.77316">
        <ele>329.39999389648</ele>
        <time>2020-10-18T09:07:37.000Z</time>
      </trkpt>
      <trkpt lat="43.96714" lon="2.77314">
        <ele>329</ele>
        <time>2020-10-18T09:07:42.000Z</time>
      </trkpt>
      <trkpt lat="43.96697" lon="2.77307">
        <ele>327.39999389648</ele>
        <time>2020-10-18T09:07:57.000Z</time>
      </trkpt>
      <trkpt lat="43.9668" lon="2.77315">
        <ele>325</ele>
        <time>2020-10-18T09:08:13.000Z</time>
      </trkpt>
      <trkpt lat="43.96679" lon="2.77316">
        <ele>325</ele>
        <time>2020-10-18T09:08:14.000Z</time>
      </trkpt>
      <trkpt lat="43.96675" lon="2.77342">
        <ele>324.39999389648</ele>
        <time>2020-10-18T09:08:29.000Z</time>
      </trkpt>
      <trkpt lat="43.96677" lon="2.77367">
        <ele>324</ele>
        <time>2020-10-18T09:08:43.000Z</time>
      </trkpt>
      <trkpt lat="43.96686" lon="2.7739">
        <ele>325</ele>
        <time>2020-10-18T09:08:59.000Z</time>
      </trkpt>
      <trkpt lat="43.96699" lon="2.77409">
        <ele>326.20001220703</ele>
        <time>2020-10-18T09:09:14.000Z</time>
      </trkpt>
      <trkpt lat="43.96717" lon="2.77412">
        <ele>328</ele>
        <time>2020-10-18T09:09:30.000Z</time>
      </trkpt>
      <trkpt lat="43.96724" lon="2.77409">
        <ele>328.79998779297</ele>
        <time>2020-10-18T09:09:37.000Z</time>
      </trkpt>
      <trkpt lat="43.96741" lon="2.77417">
        <ele>330.39999389648</ele>
        <time>2020-10-18T09:10:08.000Z</time>
      </trkpt>
      <trkpt lat="43.96742" lon="2.77426">
        <ele>331</ele>
        <time>2020-10-18T09:10:14.000Z</time>
      </trkpt>
      <trkpt lat="43.9673" lon="2.77444">
        <ele>331.60000610352</ele>
        <time>2020-10-18T09:10:27.000Z</time>
      </trkpt>
      <trkpt lat="43.96719" lon="2.77465">
        <ele>332.20001220703</ele>
        <time>2020-10-18T09:10:43.000Z</time>
      </trkpt>
      <trkpt lat="43.96703" lon="2.77476">
        <ele>330.60000610352</ele>
        <time>2020-10-18T09:10:57.000Z</time>
      </trkpt>
      <trkpt lat="43.96689" lon="2.77493">
        <ele>330.20001220703</ele>
        <time>2020-10-18T09:11:13.000Z</time>
      </trkpt>
      <trkpt lat="43.96671" lon="2.77492">
        <ele>329.20001220703</ele>
        <time>2020-10-18T09:11:26.000Z</time>
      </trkpt>
      <trkpt lat="43.96654" lon="2.77501">
        <ele>328.60000610352</ele>
        <time>2020-10-18T09:11:39.000Z</time>
      </trkpt>
      <trkpt lat="43.96638" lon="2.77513">
        <ele>328.39999389648</ele>
        <time>2020-10-18T09:11:54.000Z</time>
      </trkpt>
      <trkpt lat="43.96625" lon="2.77531">
        <ele>328</ele>
        <time>2020-10-18T09:12:08.000Z</time>
      </trkpt>
      <trkpt lat="43.96613" lon="2.7755">
        <ele>326.20001220703</ele>
        <time>2020-10-18T09:12:21.000Z</time>
      </trkpt>
      <trkpt lat="43.96601" lon="2.7757">
        <ele>324.60000610352</ele>
        <time>2020-10-18T09:12:36.000Z</time>
      </trkpt>
      <trkpt lat="43.96599" lon="2.77595">
        <ele>324.39999389648</ele>
        <time>2020-10-18T09:12:49.000Z</time>
      </trkpt>
      <trkpt lat="43.96596" lon="2.77618">
        <ele>324.60000610352</ele>
        <time>2020-10-18T09:13:02.000Z</time>
      </trkpt>
      <trkpt lat="43.96588" lon="2.7764">
        <ele>324.39999389648</ele>
        <time>2020-10-18T09:13:16.000Z</time>
      </trkpt>
      <trkpt lat="43.96586" lon="2.77667">
        <ele>325.39999389648</ele>
        <time>2020-10-18T09:13:31.000Z</time>
      </trkpt>
      <trkpt lat="43.96586" lon="2.77693">
        <ele>327</ele>
        <time>2020-10-18T09:13:45.000Z</time>
      </trkpt>
      <trkpt lat="43.96589" lon="2.77719">
        <ele>328.79998779297</ele>
        <time>2020-10-18T09:13:59.000Z</time>
      </trkpt>
      <trkpt lat="43.96586" lon="2.77744">
        <ele>330.20001220703</ele>
        <time>2020-10-18T09:14:13.000Z</time>
      </trkpt>
      <trkpt lat="43.96582" lon="2.77769">
        <ele>331</ele>
        <time>2020-10-18T09:14:27.000Z</time>
      </trkpt>
      <trkpt lat="43.96583" lon="2.77795">
        <ele>331.20001220703</ele>
        <time>2020-10-18T09:14:40.000Z</time>
      </trkpt>
      <trkpt lat="43.96584" lon="2.77821">
        <ele>331.79998779297</ele>
        <time>2020-10-18T09:14:54.000Z</time>
      </trkpt>
      <trkpt lat="43.96594" lon="2.77828">
        <ele>332.39999389648</ele>
        <time>2020-10-18T09:15:04.000Z</time>
      </trkpt>
      <trkpt lat="43.96605" lon="2.77809">
        <ele>332.60000610352</ele>
        <time>2020-10-18T09:15:16.000Z</time>
      </trkpt>
      <trkpt lat="43.96618" lon="2.77791">
        <ele>333.39999389648</ele>
        <time>2020-10-18T09:15:29.000Z</time>
      </trkpt>
      <trkpt lat="43.96631" lon="2.77774">
        <ele>334.60000610352</ele>
        <time>2020-10-18T09:15:43.000Z</time>
      </trkpt>
      <trkpt lat="43.96645" lon="2.77756">
        <ele>336.39999389648</ele>
        <time>2020-10-18T09:15:59.000Z</time>
      </trkpt>
      <trkpt lat="43.96659" lon="2.77741">
        <ele>337.39999389648</ele>
        <time>2020-10-18T09:16:12.000Z</time>
      </trkpt>
      <trkpt lat="43.96675" lon="2.77728">
        <ele>338.60000610352</ele>
        <time>2020-10-18T09:16:26.000Z</time>
      </trkpt>
      <trkpt lat="43.96692" lon="2.77719">
        <ele>340.60000610352</ele>
        <time>2020-10-18T09:16:41.000Z</time>
      </trkpt>
      <trkpt lat="43.96711" lon="2.77715">
        <ele>343.60000610352</ele>
        <time>2020-10-18T09:16:56.000Z</time>
      </trkpt>
      <trkpt lat="43.96729" lon="2.77705">
        <ele>346.39999389648</ele>
        <time>2020-10-18T09:17:11.000Z</time>
      </trkpt>
      <trkpt lat="43.96735" lon="2.77699">
        <ele>347.39999389648</ele>
        <time>2020-10-18T09:17:18.000Z</time>
      </trkpt>
      <trkpt lat="43.96747" lon="2.7768">
        <ele>348.39999389648</ele>
        <time>2020-10-18T09:17:33.000Z</time>
      </trkpt>
      <trkpt lat="43.96743" lon="2.7766">
        <ele>347.20001220703</ele>
        <time>2020-10-18T09:17:49.000Z</time>
      </trkpt>
      <trkpt lat="43.96736" lon="2.77638">
        <ele>345.20001220703</ele>
        <time>2020-10-18T09:18:03.000Z</time>
      </trkpt>
      <trkpt lat="43.96741" lon="2.77614">
        <ele>345.60000610352</ele>
        <time>2020-10-18T09:18:16.000Z</time>
      </trkpt>
      <trkpt lat="43.96754" lon="2.77596">
        <ele>347.39999389648</ele>
        <time>2020-10-18T09:18:29.000Z</time>
      </trkpt>
      <trkpt lat="43.96765" lon="2.77576">
        <ele>348.39999389648</ele>
        <time>2020-10-18T09:18:42.000Z</time>
      </trkpt>
      <trkpt lat="43.96779" lon="2.77558">
        <ele>349</ele>
        <time>2020-10-18T09:18:57.000Z</time>
      </trkpt>
      <trkpt lat="43.96794" lon="2.77541">
        <ele>350.79998779297</ele>
        <time>2020-10-18T09:19:13.000Z</time>
      </trkpt>
      <trkpt lat="43.96808" lon="2.77527">
        <ele>353</ele>
        <time>2020-10-18T09:19:27.000Z</time>
      </trkpt>
      <trkpt lat="43.96823" lon="2.7751">
        <ele>355.60000610352</ele>
        <time>2020-10-18T09:19:42.000Z</time>
      </trkpt>
      <trkpt lat="43.96839" lon="2.77499">
        <ele>358.79998779297</ele>
        <time>2020-10-18T09:19:55.000Z</time>
      </trkpt>
      <trkpt lat="43.96855" lon="2.77485">
        <ele>360.60000610352</ele>
        <time>2020-10-18T09:20:10.000Z</time>
      </trkpt>
      <trkpt lat="43.96867" lon="2.77467">
        <ele>361.60000610352</ele>
        <time>2020-10-18T09:20:24.000Z</time>
      </trkpt>
      <trkpt lat="43.96879" lon="2.77447">
        <ele>362.20001220703</ele>
        <time>2020-10-18T09:20:37.000Z</time>
      </trkpt>
      <trkpt lat="43.96886" lon="2.77424">
        <ele>362.79998779297</ele>
        <time>2020-10-18T09:20:51.000Z</time>
      </trkpt>
      <trkpt lat="43.96888" lon="2.77399">
        <ele>361.39999389648</ele>
        <time>2020-10-18T09:21:05.000Z</time>
      </trkpt>
      <trkpt lat="43.96895" lon="2.77384">
        <ele>362.79998779297</ele>
        <time>2020-10-18T09:21:17.000Z</time>
      </trkpt>
      <trkpt lat="43.96898" lon="2.77387">
        <ele>364.20001220703</ele>
        <time>2020-10-18T09:21:21.000Z</time>
      </trkpt>
      <trkpt lat="43.96895" lon="2.77411">
        <ele>365</ele>
        <time>2020-10-18T09:21:39.000Z</time>
      </trkpt>
      <trkpt lat="43.96896" lon="2.77437">
        <ele>367.20001220703</ele>
        <time>2020-10-18T09:21:53.000Z</time>
      </trkpt>
      <trkpt lat="43.96893" lon="2.77461">
        <ele>368.20001220703</ele>
        <time>2020-10-18T09:22:06.000Z</time>
      </trkpt>
      <trkpt lat="43.96888" lon="2.77486">
        <ele>369.79998779297</ele>
        <time>2020-10-18T09:22:19.000Z</time>
      </trkpt>
      <trkpt lat="43.96884" lon="2.77511">
        <ele>371.20001220703</ele>
        <time>2020-10-18T09:22:33.000Z</time>
      </trkpt>
      <trkpt lat="43.96875" lon="2.77534">
        <ele>369.60000610352</ele>
        <time>2020-10-18T09:22:46.000Z</time>
      </trkpt>
      <trkpt lat="43.96871" lon="2.77559">
        <ele>370.60000610352</ele>
        <time>2020-10-18T09:23:00.000Z</time>
      </trkpt>
      <trkpt lat="43.96873" lon="2.77577">
        <ele>372.39999389648</ele>
        <time>2020-10-18T09:23:11.000Z</time>
      </trkpt>
      <trkpt lat="43.96887" lon="2.77562">
        <ele>374.20001220703</ele>
        <time>2020-10-18T09:23:27.000Z</time>
      </trkpt>
      <trkpt lat="43.96897" lon="2.77539">
        <ele>374.79998779297</ele>
        <time>2020-10-18T09:23:43.000Z</time>
      </trkpt>
      <trkpt lat="43.96909" lon="2.77518">
        <ele>378</ele>
        <time>2020-10-18T09:23:57.000Z</time>
      </trkpt>
      <trkpt lat="43.96919" lon="2.77496">
        <ele>379.60000610352</ele>
        <time>2020-10-18T09:24:09.000Z</time>
      </trkpt>
      <trkpt lat="43.96929" lon="2.77475">
        <ele>381</ele>
        <time>2020-10-18T09:24:23.000Z</time>
      </trkpt>
      <trkpt lat="43.96939" lon="2.77453">
        <ele>383.20001220703</ele>
        <time>2020-10-18T09:24:37.000Z</time>
      </trkpt>
      <trkpt lat="43.96949" lon="2.77432">
        <ele>384</ele>
        <time>2020-10-18T09:24:51.000Z</time>
      </trkpt>
      <trkpt lat="43.96959" lon="2.77411">
        <ele>385.79998779297</ele>
        <time>2020-10-18T09:25:05.000Z</time>
      </trkpt>
      <trkpt lat="43.96965" lon="2.77393">
        <ele>385.39999389648</ele>
        <time>2020-10-18T09:25:17.000Z</time>
      </trkpt>
      <trkpt lat="43.96974" lon="2.7737">
        <ele>385.60000610352</ele>
        <time>2020-10-18T09:25:31.000Z</time>
      </trkpt>
      <trkpt lat="43.96984" lon="2.77348">
        <ele>387.39999389648</ele>
        <time>2020-10-18T09:25:46.000Z</time>
      </trkpt>
      <trkpt lat="43.96991" lon="2.77324">
        <ele>388</ele>
        <time>2020-10-18T09:26:01.000Z</time>
      </trkpt>
      <trkpt lat="43.96999" lon="2.773">
        <ele>388</ele>
        <time>2020-10-18T09:26:14.000Z</time>
      </trkpt>
      <trkpt lat="43.97013" lon="2.77282">
        <ele>389</ele>
        <time>2020-10-18T09:26:28.000Z</time>
      </trkpt>
      <trkpt lat="43.97031" lon="2.77271">
        <ele>391.79998779297</ele>
        <time>2020-10-18T09:26:42.000Z</time>
      </trkpt>
      <trkpt lat="43.97047" lon="2.77257">
        <ele>394.20001220703</ele>
        <time>2020-10-18T09:26:56.000Z</time>
      </trkpt>
      <trkpt lat="43.97062" lon="2.77242">
        <ele>396.39999389648</ele>
        <time>2020-10-18T09:27:09.000Z</time>
      </trkpt>
      <trkpt lat="43.97076" lon="2.77224">
        <ele>397.79998779297</ele>
        <time>2020-10-18T09:27:23.000Z</time>
      </trkpt>
      <trkpt lat="43.9709" lon="2.77207">
        <ele>400</ele>
        <time>2020-10-18T09:27:38.000Z</time>
      </trkpt>
      <trkpt lat="43.971" lon="2.77185">
        <ele>400.39999389648</ele>
        <time>2020-10-18T09:27:52.000Z</time>
      </trkpt>
      <trkpt lat="43.97114" lon="2.77166">
        <ele>401.79998779297</ele>
        <time>2020-10-18T09:28:05.000Z</time>
      </trkpt>
      <trkpt lat="43.97125" lon="2.77145">
        <ele>402</ele>
        <time>2020-10-18T09:28:20.000Z</time>
      </trkpt>
      <trkpt lat="43.97131" lon="2.77118">
        <ele>400.60000610352</ele>
        <time>2020-10-18T09:28:37.000Z</time>
      </trkpt>
      <trkpt lat="43.97145" lon="2.77099">
        <ele>403.20001220703</ele>
        <time>2020-10-18T09:28:54.000Z</time>
      </trkpt>
      <trkpt lat="43.97156" lon="2.77077">
        <ele>405</ele>
        <time>2020-10-18T09:29:09.000Z</time>
      </trkpt>
      <trkpt lat="43.97171" lon="2.77061">
        <ele>407.60000610352</ele>
        <time>2020-10-18T09:29:24.000Z</time>
      </trkpt>
      <trkpt lat="43.97189" lon="2.77055">
        <ele>410.39999389648</ele>
        <time>2020-10-18T09:29:38.000Z</time>
      </trkpt>
      <trkpt lat="43.97207" lon="2.77058">
        <ele>412.20001220703</ele>
        <time>2020-10-18T09:29:54.000Z</time>
      </trkpt>
      <trkpt lat="43.97226" lon="2.77057">
        <ele>413.39999389648</ele>
        <time>2020-10-18T09:30:07.000Z</time>
      </trkpt>
      <trkpt lat="43.97245" lon="2.77052">
        <ele>414.20001220703</ele>
        <time>2020-10-18T09:30:20.000Z</time>
      </trkpt>
      <trkpt lat="43.97264" lon="2.77045">
        <ele>417.20001220703</ele>
        <time>2020-10-18T09:30:33.000Z</time>
      </trkpt>
      <trkpt lat="43.97282" lon="2.77039">
        <ele>418</ele>
        <time>2020-10-18T09:30:47.000Z</time>
      </trkpt>
      <trkpt lat="43.973" lon="2.77031">
        <ele>416.39999389648</ele>
        <time>2020-10-18T09:31:05.000Z</time>
      </trkpt>
      <trkpt lat="43.97316" lon="2.77017">
        <ele>418.79998779297</ele>
        <time>2020-10-18T09:31:18.000Z</time>
      </trkpt>
      <trkpt lat="43.97327" lon="2.76997">
        <ele>420.39999389648</ele>
        <time>2020-10-18T09:31:31.000Z</time>
      </trkpt>
      <trkpt lat="43.97341" lon="2.7698">
        <ele>421.20001220703</ele>
        <time>2020-10-18T09:31:45.000Z</time>
      </trkpt>
      <trkpt lat="43.97355" lon="2.76961">
        <ele>425</ele>
        <time>2020-10-18T09:32:00.000Z</time>
      </trkpt>
      <trkpt lat="43.97367" lon="2.76942">
        <ele>426.60000610352</ele>
        <time>2020-10-18T09:32:13.000Z</time>
      </trkpt>
      <trkpt lat="43.97377" lon="2.7692">
        <ele>431.79998779297</ele>
        <time>2020-10-18T09:32:26.000Z</time>
      </trkpt>
      <trkpt lat="43.97392" lon="2.76905">
        <ele>436.20001220703</ele>
        <time>2020-10-18T09:32:42.000Z</time>
      </trkpt>
      <trkpt lat="43.97405" lon="2.76924">
        <ele>436.39999389648</ele>
        <time>2020-10-18T09:32:56.000Z</time>
      </trkpt>
      <trkpt lat="43.97418" lon="2.76944">
        <ele>433.39999389648</ele>
        <time>2020-10-18T09:33:11.000Z</time>
      </trkpt>
      <trkpt lat="43.97433" lon="2.76957">
        <ele>433</ele>
        <time>2020-10-18T09:33:26.000Z</time>
      </trkpt>
      <trkpt lat="43.97451" lon="2.76964">
        <ele>433</ele>
        <time>2020-10-18T09:33:41.000Z</time>
      </trkpt>
      <trkpt lat="43.9747" lon="2.7696">
        <ele>434.60000610352</ele>
        <time>2020-10-18T09:33:58.000Z</time>
      </trkpt>
      <trkpt lat="43.97487" lon="2.76949">
        <ele>439</ele>
        <time>2020-10-18T09:34:16.000Z</time>
      </trkpt>
      <trkpt lat="43.97501" lon="2.76933">
        <ele>445.60000610352</ele>
        <time>2020-10-18T09:34:30.000Z</time>
      </trkpt>
      <trkpt lat="43.97512" lon="2.76913">
        <ele>452.79998779297</ele>
        <time>2020-10-18T09:34:44.000Z</time>
      </trkpt>
      <trkpt lat="43.97521" lon="2.76899">
        <ele>458.20001220703</ele>
        <time>2020-10-18T09:34:55.000Z</time>
      </trkpt>
      <trkpt lat="43.97533" lon="2.7688">
        <ele>462.39999389648</ele>
        <time>2020-10-18T09:35:09.000Z</time>
      </trkpt>
      <trkpt lat="43.97545" lon="2.7686">
        <ele>465</ele>
        <time>2020-10-18T09:35:23.000Z</time>
      </trkpt>
      <trkpt lat="43.97557" lon="2.7684">
        <ele>466</ele>
        <time>2020-10-18T09:35:37.000Z</time>
      </trkpt>
      <trkpt lat="43.97568" lon="2.76819">
        <ele>466.79998779297</ele>
        <time>2020-10-18T09:35:54.000Z</time>
      </trkpt>
      <trkpt lat="43.9758" lon="2.76799">
        <ele>467.60000610352</ele>
        <time>2020-10-18T09:36:08.000Z</time>
      </trkpt>
      <trkpt lat="43.97588" lon="2.76775">
        <ele>472.20001220703</ele>
        <time>2020-10-18T09:36:22.000Z</time>
      </trkpt>
      <trkpt lat="43.97599" lon="2.76753">
        <ele>474.79998779297</ele>
        <time>2020-10-18T09:36:36.000Z</time>
      </trkpt>
      <trkpt lat="43.97608" lon="2.76731">
        <ele>475.60000610352</ele>
        <time>2020-10-18T09:36:49.000Z</time>
      </trkpt>
      <trkpt lat="43.9762" lon="2.7671">
        <ele>476.39999389648</ele>
        <time>2020-10-18T09:37:03.000Z</time>
      </trkpt>
      <trkpt lat="43.97628" lon="2.76686">
        <ele>478.39999389648</ele>
        <time>2020-10-18T09:37:17.000Z</time>
      </trkpt>
      <trkpt lat="43.97638" lon="2.76665">
        <ele>479.20001220703</ele>
        <time>2020-10-18T09:37:30.000Z</time>
      </trkpt>
      <trkpt lat="43.97648" lon="2.76642">
        <ele>478</ele>
        <time>2020-10-18T09:37:42.000Z</time>
      </trkpt>
      <trkpt lat="43.97657" lon="2.76617">
        <ele>477.79998779297</ele>
        <time>2020-10-18T09:37:50.000Z</time>
      </trkpt>
      <trkpt lat="43.97664" lon="2.7659">
        <ele>478.79998779297</ele>
        <time>2020-10-18T09:37:58.000Z</time>
      </trkpt>
      <trkpt lat="43.97675" lon="2.76566">
        <ele>477.79998779297</ele>
        <time>2020-10-18T09:38:05.000Z</time>
      </trkpt>
      <trkpt lat="43.97692" lon="2.7655">
        <ele>476.39999389648</ele>
        <time>2020-10-18T09:38:12.000Z</time>
      </trkpt>
      <trkpt lat="43.97708" lon="2.76538">
        <ele>478</ele>
        <time>2020-10-18T09:38:19.000Z</time>
      </trkpt>
      <trkpt lat="43.97724" lon="2.76526">
        <ele>479</ele>
        <time>2020-10-18T09:38:27.000Z</time>
      </trkpt>
      <trkpt lat="43.9774" lon="2.76514">
        <ele>479.20001220703</ele>
        <time>2020-10-18T09:38:39.000Z</time>
      </trkpt>
      <trkpt lat="43.97757" lon="2.76503">
        <ele>479.60000610352</ele>
        <time>2020-10-18T09:38:52.000Z</time>
      </trkpt>
      <trkpt lat="43.97773" lon="2.76491">
        <ele>479</ele>
        <time>2020-10-18T09:39:05.000Z</time>
      </trkpt>
      <trkpt lat="43.97791" lon="2.7648">
        <ele>478.60000610352</ele>
        <time>2020-10-18T09:39:18.000Z</time>
      </trkpt>
      <trkpt lat="43.97808" lon="2.76468">
        <ele>478</ele>
        <time>2020-10-18T09:39:31.000Z</time>
      </trkpt>
      <trkpt lat="43.97825" lon="2.76456">
        <ele>478.20001220703</ele>
        <time>2020-10-18T09:39:44.000Z</time>
      </trkpt>
      <trkpt lat="43.97843" lon="2.76444">
        <ele>479</ele>
        <time>2020-10-18T09:39:57.000Z</time>
      </trkpt>
      <trkpt lat="43.97859" lon="2.76431">
        <ele>479.20001220703</ele>
        <time>2020-10-18T09:40:10.000Z</time>
      </trkpt>
      <trkpt lat="43.97874" lon="2.76415">
        <ele>478.20001220703</ele>
        <time>2020-10-18T09:40:23.000Z</time>
      </trkpt>
      <trkpt lat="43.97891" lon="2.76403">
        <ele>476.79998779297</ele>
        <time>2020-10-18T09:40:37.000Z</time>
      </trkpt>
      <trkpt lat="43.97903" lon="2.76385">
        <ele>475</ele>
        <time>2020-10-18T09:40:49.000Z</time>
      </trkpt>
      <trkpt lat="43.97916" lon="2.76367">
        <ele>476.20001220703</ele>
        <time>2020-10-18T09:41:02.000Z</time>
      </trkpt>
      <trkpt lat="43.97928" lon="2.76347">
        <ele>477.60000610352</ele>
        <time>2020-10-18T09:41:16.000Z</time>
      </trkpt>
      <trkpt lat="43.97935" lon="2.76323">
        <ele>479.20001220703</ele>
        <time>2020-10-18T09:41:29.000Z</time>
      </trkpt>
      <trkpt lat="43.97941" lon="2.76298">
        <ele>481.79998779297</ele>
        <time>2020-10-18T09:41:43.000Z</time>
      </trkpt>
      <trkpt lat="43.97942" lon="2.76273">
        <ele>483.60000610352</ele>
        <time>2020-10-18T09:41:58.000Z</time>
      </trkpt>
      <trkpt lat="43.97943" lon="2.76247">
        <ele>485</ele>
        <time>2020-10-18T09:42:13.000Z</time>
      </trkpt>
      <trkpt lat="43.97943" lon="2.76222">
        <ele>486.20001220703</ele>
        <time>2020-10-18T09:42:28.000Z</time>
      </trkpt>
      <trkpt lat="43.97943" lon="2.76196">
        <ele>487.60000610352</ele>
        <time>2020-10-18T09:42:41.000Z</time>
      </trkpt>
      <trkpt lat="43.97943" lon="2.76195">
        <ele>487.60000610352</ele>
        <time>2020-10-18T09:42:42.000Z</time>
      </trkpt>
      <trkpt lat="43.97945" lon="2.76168">
        <ele>488</ele>
        <time>2020-10-18T09:42:56.000Z</time>
      </trkpt>
      <trkpt lat="43.97948" lon="2.76141">
        <ele>486.60000610352</ele>
        <time>2020-10-18T09:43:09.000Z</time>
      </trkpt>
      <trkpt lat="43.97952" lon="2.76116">
        <ele>485</ele>
        <time>2020-10-18T09:43:23.000Z</time>
      </trkpt>
      <trkpt lat="43.97955" lon="2.76101">
        <ele>484</ele>
        <time>2020-10-18T09:43:31.000Z</time>
      </trkpt>
      <trkpt lat="43.97959" lon="2.76075">
        <ele>483.60000610352</ele>
        <time>2020-10-18T09:43:44.000Z</time>
      </trkpt>
      <trkpt lat="43.97965" lon="2.7605">
        <ele>481.60000610352</ele>
        <time>2020-10-18T09:43:57.000Z</time>
      </trkpt>
      <trkpt lat="43.97968" lon="2.76024">
        <ele>480.39999389648</ele>
        <time>2020-10-18T09:44:10.000Z</time>
      </trkpt>
      <trkpt lat="43.97975" lon="2.75999">
        <ele>480.20001220703</ele>
        <time>2020-10-18T09:44:23.000Z</time>
      </trkpt>
      <trkpt lat="43.97982" lon="2.75976">
        <ele>478.39999389648</ele>
        <time>2020-10-18T09:44:36.000Z</time>
      </trkpt>
      <trkpt lat="43.97991" lon="2.75953">
        <ele>477.60000610352</ele>
        <time>2020-10-18T09:44:50.000Z</time>
      </trkpt>
      <trkpt lat="43.98002" lon="2.75932">
        <ele>477.79998779297</ele>
        <time>2020-10-18T09:45:03.000Z</time>
      </trkpt>
      <trkpt lat="43.98006" lon="2.75923">
        <ele>478</ele>
        <time>2020-10-18T09:45:09.000Z</time>
      </trkpt>
      <trkpt lat="43.98012" lon="2.759">
        <ele>477.39999389648</ele>
        <time>2020-10-18T09:45:21.000Z</time>
      </trkpt>
      <trkpt lat="43.9802" lon="2.75876">
        <ele>478.60000610352</ele>
        <time>2020-10-18T09:45:33.000Z</time>
      </trkpt>
      <trkpt lat="43.98028" lon="2.75852">
        <ele>478.39999389648</ele>
        <time>2020-10-18T09:45:44.000Z</time>
      </trkpt>
      <trkpt lat="43.98035" lon="2.75828">
        <ele>476.60000610352</ele>
        <time>2020-10-18T09:45:56.000Z</time>
      </trkpt>
      <trkpt lat="43.98045" lon="2.75806">
        <ele>472.20001220703</ele>
        <time>2020-10-18T09:46:09.000Z</time>
      </trkpt>
      <trkpt lat="43.98055" lon="2.75785">
        <ele>468</ele>
        <time>2020-10-18T09:46:22.000Z</time>
      </trkpt>
      <trkpt lat="43.98063" lon="2.75762">
        <ele>469.79998779297</ele>
        <time>2020-10-18T09:46:35.000Z</time>
      </trkpt>
      <trkpt lat="43.98074" lon="2.75741">
        <ele>468.79998779297</ele>
        <time>2020-10-18T09:46:48.000Z</time>
      </trkpt>
      <trkpt lat="43.98084" lon="2.75719">
        <ele>467</ele>
        <time>2020-10-18T09:47:01.000Z</time>
      </trkpt>
      <trkpt lat="43.98093" lon="2.75697">
        <ele>467</ele>
        <time>2020-10-18T09:47:14.000Z</time>
      </trkpt>
      <trkpt lat="43.98101" lon="2.75675">
        <ele>466.79998779297</ele>
        <time>2020-10-18T09:47:27.000Z</time>
      </trkpt>
      <trkpt lat="43.98107" lon="2.75651">
        <ele>465.39999389648</ele>
        <time>2020-10-18T09:47:40.000Z</time>
      </trkpt>
      <trkpt lat="43.98112" lon="2.75627">
        <ele>463</ele>
        <time>2020-10-18T09:47:55.000Z</time>
      </trkpt>
      <trkpt lat="43.98114" lon="2.75601">
        <ele>460.39999389648</ele>
        <time>2020-10-18T09:48:10.000Z</time>
      </trkpt>
      <trkpt lat="43.98119" lon="2.75575">
        <ele>459.39999389648</ele>
        <time>2020-10-18T09:48:23.000Z</time>
      </trkpt>
      <trkpt lat="43.98119" lon="2.75549">
        <ele>458.39999389648</ele>
        <time>2020-10-18T09:48:37.000Z</time>
      </trkpt>
      <trkpt lat="43.98119" lon="2.75523">
        <ele>457.39999389648</ele>
        <time>2020-10-18T09:48:51.000Z</time>
      </trkpt>
      <trkpt lat="43.98122" lon="2.75496">
        <ele>457.20001220703</ele>
        <time>2020-10-18T09:49:02.000Z</time>
      </trkpt>
      <trkpt lat="43.98123" lon="2.75469">
        <ele>455.79998779297</ele>
        <time>2020-10-18T09:49:14.000Z</time>
      </trkpt>
      <trkpt lat="43.98123" lon="2.75444">
        <ele>454.60000610352</ele>
        <time>2020-10-18T09:49:25.000Z</time>
      </trkpt>
      <trkpt lat="43.98121" lon="2.75419">
        <ele>453.60000610352</ele>
        <time>2020-10-18T09:49:37.000Z</time>
      </trkpt>
      <trkpt lat="43.98116" lon="2.75394">
        <ele>453.39999389648</ele>
        <time>2020-10-18T09:49:49.000Z</time>
      </trkpt>
      <trkpt lat="43.9811" lon="2.7537">
        <ele>453.39999389648</ele>
        <time>2020-10-18T09:50:01.000Z</time>
      </trkpt>
      <trkpt lat="43.9811" lon="2.75344">
        <ele>453</ele>
        <time>2020-10-18T09:50:15.000Z</time>
      </trkpt>
      <trkpt lat="43.9811" lon="2.75337">
        <ele>452.79998779297</ele>
        <time>2020-10-18T09:50:19.000Z</time>
      </trkpt>
      <trkpt lat="43.98106" lon="2.75312">
        <ele>452.60000610352</ele>
        <time>2020-10-18T09:50:33.000Z</time>
      </trkpt>
      <trkpt lat="43.98102" lon="2.75286">
        <ele>452</ele>
        <time>2020-10-18T09:50:46.000Z</time>
      </trkpt>
      <trkpt lat="43.98098" lon="2.7526">
        <ele>451.39999389648</ele>
        <time>2020-10-18T09:50:59.000Z</time>
      </trkpt>
      <trkpt lat="43.98092" lon="2.75236">
        <ele>450.39999389648</ele>
        <time>2020-10-18T09:51:12.000Z</time>
      </trkpt>
      <trkpt lat="43.98083" lon="2.75214">
        <ele>450</ele>
        <time>2020-10-18T09:51:25.000Z</time>
      </trkpt>
      <trkpt lat="43.98076" lon="2.75189">
        <ele>450.20001220703</ele>
        <time>2020-10-18T09:51:38.000Z</time>
      </trkpt>
      <trkpt lat="43.9807" lon="2.75165">
        <ele>450.20001220703</ele>
        <time>2020-10-18T09:51:51.000Z</time>
      </trkpt>
      <trkpt lat="43.98062" lon="2.75143">
        <ele>449.39999389648</ele>
        <time>2020-10-18T09:52:04.000Z</time>
      </trkpt>
      <trkpt lat="43.98049" lon="2.75124">
        <ele>448</ele>
        <time>2020-10-18T09:52:18.000Z</time>
      </trkpt>
      <trkpt lat="43.98037" lon="2.75105">
        <ele>446.60000610352</ele>
        <time>2020-10-18T09:52:32.000Z</time>
      </trkpt>
      <trkpt lat="43.98024" lon="2.75086">
        <ele>444.79998779297</ele>
        <time>2020-10-18T09:52:46.000Z</time>
      </trkpt>
      <trkpt lat="43.98012" lon="2.75066">
        <ele>443</ele>
        <time>2020-10-18T09:53:01.000Z</time>
      </trkpt>
      <trkpt lat="43.98001" lon="2.75044">
        <ele>441.20001220703</ele>
        <time>2020-10-18T09:53:14.000Z</time>
      </trkpt>
      <trkpt lat="43.9799" lon="2.75024">
        <ele>439.39999389648</ele>
        <time>2020-10-18T09:53:27.000Z</time>
      </trkpt>
      <trkpt lat="43.97979" lon="2.75009">
        <ele>437.79998779297</ele>
        <time>2020-10-18T09:53:39.000Z</time>
      </trkpt>
      <trkpt lat="43.9796" lon="2.75002">
        <ele>434.39999389648</ele>
        <time>2020-10-18T09:53:51.000Z</time>
      </trkpt>
      <trkpt lat="43.97941" lon="2.75">
        <ele>430.79998779297</ele>
        <time>2020-10-18T09:54:11.000Z</time>
      </trkpt>
      <trkpt lat="43.97923" lon="2.74995">
        <ele>427.39999389648</ele>
        <time>2020-10-18T09:54:25.000Z</time>
      </trkpt>
      <trkpt lat="43.97905" lon="2.74992">
        <ele>423.79998779297</ele>
        <time>2020-10-18T09:54:39.000Z</time>
      </trkpt>
      <trkpt lat="43.97888" lon="2.74981">
        <ele>420.60000610352</ele>
        <time>2020-10-18T09:54:53.000Z</time>
      </trkpt>
      <trkpt lat="43.97873" lon="2.74966">
        <ele>418.20001220703</ele>
        <time>2020-10-18T09:55:08.000Z</time>
      </trkpt>
      <trkpt lat="43.97861" lon="2.74947">
        <ele>416.39999389648</ele>
        <time>2020-10-18T09:55:21.000Z</time>
      </trkpt>
      <trkpt lat="43.97863" lon="2.74922">
        <ele>417.79998779297</ele>
        <time>2020-10-18T09:55:34.000Z</time>
      </trkpt>
      <trkpt lat="43.97869" lon="2.74897">
        <ele>417.20001220703</ele>
        <time>2020-10-18T09:55:48.000Z</time>
      </trkpt>
      <trkpt lat="43.97881" lon="2.74879">
        <ele>418.20001220703</ele>
        <time>2020-10-18T09:56:07.000Z</time>
      </trkpt>
      <trkpt lat="43.97897" lon="2.74867">
        <ele>418.60000610352</ele>
        <time>2020-10-18T09:56:24.000Z</time>
      </trkpt>
      <trkpt lat="43.97911" lon="2.74851">
        <ele>415.79998779297</ele>
        <time>2020-10-18T09:56:39.000Z</time>
      </trkpt>
      <trkpt lat="43.97928" lon="2.74838">
        <ele>413.79998779297</ele>
        <time>2020-10-18T09:56:55.000Z</time>
      </trkpt>
      <trkpt lat="43.97945" lon="2.74827">
        <ele>413</ele>
        <time>2020-10-18T09:57:09.000Z</time>
      </trkpt>
      <trkpt lat="43.97939" lon="2.74817">
        <ele>411.20001220703</ele>
        <time>2020-10-18T09:57:21.000Z</time>
      </trkpt>
      <trkpt lat="43.97926" lon="2.7482">
        <ele>410.79998779297</ele>
        <time>2020-10-18T09:58:35.000Z</time>
      </trkpt>
      <trkpt lat="43.97916" lon="2.74809">
        <ele>408.60000610352</ele>
        <time>2020-10-18T09:59:14.000Z</time>
      </trkpt>
      <trkpt lat="43.97923" lon="2.748">
        <ele>408</ele>
        <time>2020-10-18T09:59:23.000Z</time>
      </trkpt>
      <trkpt lat="43.97924" lon="2.74779">
        <ele>405.20001220703</ele>
        <time>2020-10-18T09:59:39.000Z</time>
      </trkpt>
      <trkpt lat="43.9792" lon="2.74776">
        <ele>404.60000610352</ele>
        <time>2020-10-18T09:59:42.000Z</time>
      </trkpt>
      <trkpt lat="43.97908" lon="2.74757">
        <ele>401.39999389648</ele>
        <time>2020-10-18T09:59:54.000Z</time>
      </trkpt>
      <trkpt lat="43.97895" lon="2.74738">
        <ele>396.79998779297</ele>
        <time>2020-10-18T10:00:10.000Z</time>
      </trkpt>
      <trkpt lat="43.9788" lon="2.7472">
        <ele>392</ele>
        <time>2020-10-18T10:00:22.000Z</time>
      </trkpt>
      <trkpt lat="43.97871" lon="2.74697">
        <ele>386.60000610352</ele>
        <time>2020-10-18T10:00:35.000Z</time>
      </trkpt>
      <trkpt lat="43.97866" lon="2.74673">
        <ele>382.39999389648</ele>
        <time>2020-10-18T10:00:49.000Z</time>
      </trkpt>
      <trkpt lat="43.97856" lon="2.74652">
        <ele>378.79998779297</ele>
        <time>2020-10-18T10:01:02.000Z</time>
      </trkpt>
      <trkpt lat="43.97848" lon="2.74629">
        <ele>375.39999389648</ele>
        <time>2020-10-18T10:01:15.000Z</time>
      </trkpt>
      <trkpt lat="43.97839" lon="2.74606">
        <ele>371.79998779297</ele>
        <time>2020-10-18T10:01:27.000Z</time>
      </trkpt>
      <trkpt lat="43.97837" lon="2.7458">
        <ele>370.20001220703</ele>
        <time>2020-10-18T10:01:39.000Z</time>
      </trkpt>
      <trkpt lat="43.97837" lon="2.74578">
        <ele>370.20001220703</ele>
        <time>2020-10-18T10:01:40.000Z</time>
      </trkpt>
      <trkpt lat="43.97828" lon="2.74557">
        <ele>367.20001220703</ele>
        <time>2020-10-18T10:01:52.000Z</time>
      </trkpt>
      <trkpt lat="43.97821" lon="2.74534">
        <ele>365.39999389648</ele>
        <time>2020-10-18T10:02:05.000Z</time>
      </trkpt>
      <trkpt lat="43.97815" lon="2.74509">
        <ele>364.39999389648</ele>
        <time>2020-10-18T10:02:22.000Z</time>
      </trkpt>
      <trkpt lat="43.97805" lon="2.74486">
        <ele>360.20001220703</ele>
        <time>2020-10-18T10:02:35.000Z</time>
      </trkpt>
      <trkpt lat="43.97794" lon="2.74466">
        <ele>355</ele>
        <time>2020-10-18T10:02:49.000Z</time>
      </trkpt>
      <trkpt lat="43.97784" lon="2.74445">
        <ele>350.60000610352</ele>
        <time>2020-10-18T10:03:02.000Z</time>
      </trkpt>
      <trkpt lat="43.97781" lon="2.7442">
        <ele>348</ele>
        <time>2020-10-18T10:03:14.000Z</time>
      </trkpt>
      <trkpt lat="43.97778" lon="2.74395">
        <ele>344.79998779297</ele>
        <time>2020-10-18T10:03:27.000Z</time>
      </trkpt>
      <trkpt lat="43.97776" lon="2.74369">
        <ele>342.20001220703</ele>
        <time>2020-10-18T10:03:39.000Z</time>
      </trkpt>
      <trkpt lat="43.97775" lon="2.74342">
        <ele>339.60000610352</ele>
        <time>2020-10-18T10:03:52.000Z</time>
      </trkpt>
      <trkpt lat="43.97782" lon="2.74319">
        <ele>338</ele>
        <time>2020-10-18T10:04:04.000Z</time>
      </trkpt>
      <trkpt lat="43.97796" lon="2.74305">
        <ele>339</ele>
        <time>2020-10-18T10:04:15.000Z</time>
      </trkpt>
      <trkpt lat="43.97793" lon="2.74299">
        <ele>337.60000610352</ele>
        <time>2020-10-18T10:04:19.000Z</time>
      </trkpt>
      <trkpt lat="43.97782" lon="2.74289">
        <ele>333.79998779297</ele>
        <time>2020-10-18T10:04:28.000Z</time>
      </trkpt>
      <trkpt lat="43.97798" lon="2.74277">
        <ele>335.60000610352</ele>
        <time>2020-10-18T10:04:40.000Z</time>
      </trkpt>
      <trkpt lat="43.97815" lon="2.74264">
        <ele>336.20001220703</ele>
        <time>2020-10-18T10:04:56.000Z</time>
      </trkpt>
      <trkpt lat="43.97819" lon="2.74259">
        <ele>336</ele>
        <time>2020-10-18T10:05:00.000Z</time>
      </trkpt>
      <trkpt lat="43.97819" lon="2.74251">
        <ele>335</ele>
        <time>2020-10-18T10:05:05.000Z</time>
      </trkpt>
      <trkpt lat="43.97802" lon="2.74256">
        <ele>332.20001220703</ele>
        <time>2020-10-18T10:05:20.000Z</time>
      </trkpt>
      <trkpt lat="43.97796" lon="2.74254">
        <ele>330.79998779297</ele>
        <time>2020-10-18T10:05:28.000Z</time>
      </trkpt>
      <trkpt lat="43.97786" lon="2.74231">
        <ele>329</ele>
        <time>2020-10-18T10:05:46.000Z</time>
      </trkpt>
      <trkpt lat="43.97799" lon="2.74214">
        <ele>331.39999389648</ele>
        <time>2020-10-18T10:06:00.000Z</time>
      </trkpt>
      <trkpt lat="43.97801" lon="2.7421">
        <ele>331.79998779297</ele>
        <time>2020-10-18T10:06:04.000Z</time>
      </trkpt>
      <trkpt lat="43.97805" lon="2.74201">
        <ele>332.39999389648</ele>
        <time>2020-10-18T10:06:10.000Z</time>
      </trkpt>
      <trkpt lat="43.97804" lon="2.74197">
        <ele>332</ele>
        <time>2020-10-18T10:06:12.000Z</time>
      </trkpt>
      <trkpt lat="43.97787" lon="2.74187">
        <ele>329.20001220703</ele>
        <time>2020-10-18T10:06:25.000Z</time>
      </trkpt>
      <trkpt lat="43.97769" lon="2.74191">
        <ele>326.39999389648</ele>
        <time>2020-10-18T10:06:38.000Z</time>
      </trkpt>
      <trkpt lat="43.97753" lon="2.74203">
        <ele>325</ele>
        <time>2020-10-18T10:06:52.000Z</time>
      </trkpt>
      <trkpt lat="43.97746" lon="2.74209">
        <ele>324.20001220703</ele>
        <time>2020-10-18T10:06:59.000Z</time>
      </trkpt>
      <trkpt lat="43.97728" lon="2.74217">
        <ele>322.60000610352</ele>
        <time>2020-10-18T10:07:13.000Z</time>
      </trkpt>
      <trkpt lat="43.97708" lon="2.7422">
        <ele>320.60000610352</ele>
        <time>2020-10-18T10:07:23.000Z</time>
      </trkpt>
      <trkpt lat="43.97691" lon="2.74209">
        <ele>319</ele>
        <time>2020-10-18T10:07:29.000Z</time>
      </trkpt>
      <trkpt lat="43.97679" lon="2.74188">
        <ele>321</ele>
        <time>2020-10-18T10:07:35.000Z</time>
      </trkpt>
      <trkpt lat="43.97673" lon="2.74164">
        <ele>321.39999389648</ele>
        <time>2020-10-18T10:07:41.000Z</time>
      </trkpt>
      <trkpt lat="43.9768" lon="2.74139">
        <ele>319.79998779297</ele>
        <time>2020-10-18T10:07:47.000Z</time>
      </trkpt>
      <trkpt lat="43.97685" lon="2.74114">
        <ele>319</ele>
        <time>2020-10-18T10:07:53.000Z</time>
      </trkpt>
      <trkpt lat="43.97683" lon="2.74088">
        <ele>318.79998779297</ele>
        <time>2020-10-18T10:08:04.000Z</time>
      </trkpt>
      <trkpt lat="43.97678" lon="2.74062">
        <ele>318.60000610352</ele>
        <time>2020-10-18T10:08:17.000Z</time>
      </trkpt>
      <trkpt lat="43.97677" lon="2.74037">
        <ele>319.39999389648</ele>
        <time>2020-10-18T10:08:31.000Z</time>
      </trkpt>
      <trkpt lat="43.97678" lon="2.74012">
        <ele>320.39999389648</ele>
        <time>2020-10-18T10:08:43.000Z</time>
      </trkpt>
      <trkpt lat="43.97675" lon="2.73987">
        <ele>320.20001220703</ele>
        <time>2020-10-18T10:08:56.000Z</time>
      </trkpt>
      <trkpt lat="43.97666" lon="2.73967">
        <ele>319.60000610352</ele>
        <time>2020-10-18T10:09:09.000Z</time>
      </trkpt>
      <trkpt lat="43.97665" lon="2.73941">
        <ele>319.20001220703</ele>
        <time>2020-10-18T10:09:21.000Z</time>
      </trkpt>
      <trkpt lat="43.97664" lon="2.73915">
        <ele>319</ele>
        <time>2020-10-18T10:09:36.000Z</time>
      </trkpt>
      <trkpt lat="43.97664" lon="2.73911">
        <ele>319</ele>
        <time>2020-10-18T10:09:39.000Z</time>
      </trkpt>
      <trkpt lat="43.97659" lon="2.7389">
        <ele>318.39999389648</ele>
        <time>2020-10-18T10:10:07.000Z</time>
      </trkpt>
      <trkpt lat="43.9765" lon="2.73868">
        <ele>317.60000610352</ele>
        <time>2020-10-18T10:10:19.000Z</time>
      </trkpt>
      <trkpt lat="43.97644" lon="2.73844">
        <ele>316.60000610352</ele>
        <time>2020-10-18T10:10:31.000Z</time>
      </trkpt>
      <trkpt lat="43.97646" lon="2.73819">
        <ele>317.60000610352</ele>
        <time>2020-10-18T10:10:43.000Z</time>
      </trkpt>
      <trkpt lat="43.97646" lon="2.73794">
        <ele>319</ele>
        <time>2020-10-18T10:10:56.000Z</time>
      </trkpt>
      <trkpt lat="43.97629" lon="2.73785">
        <ele>319.39999389648</ele>
        <time>2020-10-18T10:11:08.000Z</time>
      </trkpt>
      <trkpt lat="43.97617" lon="2.73768">
        <ele>320.20001220703</ele>
        <time>2020-10-18T10:11:21.000Z</time>
      </trkpt>
      <trkpt lat="43.97615" lon="2.73742">
        <ele>320.60000610352</ele>
        <time>2020-10-18T10:11:35.000Z</time>
      </trkpt>
      <trkpt lat="43.97615" lon="2.73717">
        <ele>320.60000610352</ele>
        <time>2020-10-18T10:11:48.000Z</time>
      </trkpt>
      <trkpt lat="43.97619" lon="2.73691">
        <ele>320.39999389648</ele>
        <time>2020-10-18T10:12:03.000Z</time>
      </trkpt>
      <trkpt lat="43.97619" lon="2.73685">
        <ele>320.39999389648</ele>
        <time>2020-10-18T10:12:06.000Z</time>
      </trkpt>
      <trkpt lat="43.97615" lon="2.7366">
        <ele>320.79998779297</ele>
        <time>2020-10-18T10:12:19.000Z</time>
      </trkpt>
      <trkpt lat="43.97604" lon="2.73639">
        <ele>321.39999389648</ele>
        <time>2020-10-18T10:12:32.000Z</time>
      </trkpt>
      <trkpt lat="43.97593" lon="2.73619">
        <ele>320.39999389648</ele>
        <time>2020-10-18T10:12:46.000Z</time>
      </trkpt>
      <trkpt lat="43.97585" lon="2.73595">
        <ele>320</ele>
        <time>2020-10-18T10:12:59.000Z</time>
      </trkpt>
      <trkpt lat="43.97578" lon="2.73571">
        <ele>319.79998779297</ele>
        <time>2020-10-18T10:13:12.000Z</time>
      </trkpt>
      <trkpt lat="43.97575" lon="2.73544">
        <ele>320.20001220703</ele>
        <time>2020-10-18T10:13:25.000Z</time>
      </trkpt>
      <trkpt lat="43.97573" lon="2.73518">
        <ele>320.20001220703</ele>
        <time>2020-10-18T10:13:38.000Z</time>
      </trkpt>
      <trkpt lat="43.97571" lon="2.73493">
        <ele>320.79998779297</ele>
        <time>2020-10-18T10:13:52.000Z</time>
      </trkpt>
      <trkpt lat="43.97569" lon="2.73466">
        <ele>322.20001220703</ele>
        <time>2020-10-18T10:14:07.000Z</time>
      </trkpt>
      <trkpt lat="43.97569" lon="2.73439">
        <ele>323.20001220703</ele>
        <time>2020-10-18T10:14:19.000Z</time>
      </trkpt>
      <trkpt lat="43.97569" lon="2.73413">
        <ele>324.60000610352</ele>
        <time>2020-10-18T10:14:25.000Z</time>
      </trkpt>
      <trkpt lat="43.97568" lon="2.73388">
        <ele>327</ele>
        <time>2020-10-18T10:14:30.000Z</time>
      </trkpt>
      <trkpt lat="43.97567" lon="2.73358">
        <ele>328.20001220703</ele>
        <time>2020-10-18T10:14:36.000Z</time>
      </trkpt>
      <trkpt lat="43.9756" lon="2.73332">
        <ele>329.20001220703</ele>
        <time>2020-10-18T10:14:42.000Z</time>
      </trkpt>
      <trkpt lat="43.97553" lon="2.73309">
        <ele>331.20001220703</ele>
        <time>2020-10-18T10:14:47.000Z</time>
      </trkpt>
      <trkpt lat="43.97547" lon="2.73284">
        <ele>333.20001220703</ele>
        <time>2020-10-18T10:14:52.000Z</time>
      </trkpt>
      <trkpt lat="43.97543" lon="2.73257">
        <ele>334.39999389648</ele>
        <time>2020-10-18T10:14:58.000Z</time>
      </trkpt>
      <trkpt lat="43.97539" lon="2.7323">
        <ele>336.39999389648</ele>
        <time>2020-10-18T10:15:04.000Z</time>
      </trkpt>
      <trkpt lat="43.97535" lon="2.73203">
        <ele>338.79998779297</ele>
        <time>2020-10-18T10:15:10.000Z</time>
      </trkpt>
      <trkpt lat="43.9753" lon="2.73176">
        <ele>341.39999389648</ele>
        <time>2020-10-18T10:15:16.000Z</time>
      </trkpt>
      <trkpt lat="43.97525" lon="2.73152">
        <ele>342.20001220703</ele>
        <time>2020-10-18T10:15:22.000Z</time>
      </trkpt>
      <trkpt lat="43.97524" lon="2.73127">
        <ele>342.39999389648</ele>
        <time>2020-10-18T10:15:34.000Z</time>
      </trkpt>
      <trkpt lat="43.97515" lon="2.73104">
        <ele>340</ele>
        <time>2020-10-18T10:15:47.000Z</time>
      </trkpt>
      <trkpt lat="43.97508" lon="2.73079">
        <ele>338.39999389648</ele>
        <time>2020-10-18T10:16:00.000Z</time>
      </trkpt>
      <trkpt lat="43.97504" lon="2.73054">
        <ele>337</ele>
        <time>2020-10-18T10:16:13.000Z</time>
      </trkpt>
      <trkpt lat="43.975" lon="2.7303">
        <ele>334.79998779297</ele>
        <time>2020-10-18T10:16:25.000Z</time>
      </trkpt>
      <trkpt lat="43.97495" lon="2.73005">
        <ele>332.39999389648</ele>
        <time>2020-10-18T10:16:37.000Z</time>
      </trkpt>
      <trkpt lat="43.97493" lon="2.72979">
        <ele>332.20001220703</ele>
        <time>2020-10-18T10:16:48.000Z</time>
      </trkpt>
      <trkpt lat="43.97492" lon="2.72973">
        <ele>332.20001220703</ele>
        <time>2020-10-18T10:16:51.000Z</time>
      </trkpt>
      <trkpt lat="43.97486" lon="2.72947">
        <ele>330.20001220703</ele>
        <time>2020-10-18T10:17:04.000Z</time>
      </trkpt>
      <trkpt lat="43.97476" lon="2.72927">
        <ele>327.79998779297</ele>
        <time>2020-10-18T10:17:17.000Z</time>
      </trkpt>
      <trkpt lat="43.97472" lon="2.72902">
        <ele>326</ele>
        <time>2020-10-18T10:17:30.000Z</time>
      </trkpt>
      <trkpt lat="43.97466" lon="2.72878">
        <ele>323.60000610352</ele>
        <time>2020-10-18T10:17:46.000Z</time>
      </trkpt>
      <trkpt lat="43.97453" lon="2.72861">
        <ele>321</ele>
        <time>2020-10-18T10:18:00.000Z</time>
      </trkpt>
      <trkpt lat="43.97442" lon="2.72844">
        <ele>318.39999389648</ele>
        <time>2020-10-18T10:18:14.000Z</time>
      </trkpt>
      <trkpt lat="43.97441" lon="2.72841">
        <ele>318.20001220703</ele>
        <time>2020-10-18T10:18:16.000Z</time>
      </trkpt>
      <trkpt lat="43.9744" lon="2.72833">
        <ele>317.60000610352</ele>
        <time>2020-10-18T10:18:21.000Z</time>
      </trkpt>
      <trkpt lat="43.97439" lon="2.72807">
        <ele>316.20001220703</ele>
        <time>2020-10-18T10:18:36.000Z</time>
      </trkpt>
      <trkpt lat="43.97431" lon="2.72783">
        <ele>313.39999389648</ele>
        <time>2020-10-18T10:18:49.000Z</time>
      </trkpt>
      <trkpt lat="43.9742" lon="2.72762">
        <ele>310</ele>
        <time>2020-10-18T10:19:02.000Z</time>
      </trkpt>
      <trkpt lat="43.97412" lon="2.72739">
        <ele>308.60000610352</ele>
        <time>2020-10-18T10:19:15.000Z</time>
      </trkpt>
      <trkpt lat="43.97403" lon="2.72717">
        <ele>307.39999389648</ele>
        <time>2020-10-18T10:19:27.000Z</time>
      </trkpt>
      <trkpt lat="43.97392" lon="2.72697">
        <ele>305</ele>
        <time>2020-10-18T10:19:38.000Z</time>
      </trkpt>
      <trkpt lat="43.97382" lon="2.72675">
        <ele>302.39999389648</ele>
        <time>2020-10-18T10:19:50.000Z</time>
      </trkpt>
      <trkpt lat="43.97372" lon="2.72653">
        <ele>301.39999389648</ele>
        <time>2020-10-18T10:20:02.000Z</time>
      </trkpt>
      <trkpt lat="43.97363" lon="2.7263">
        <ele>301</ele>
        <time>2020-10-18T10:20:14.000Z</time>
      </trkpt>
      <trkpt lat="43.97354" lon="2.72607">
        <ele>300.20001220703</ele>
        <time>2020-10-18T10:20:26.000Z</time>
      </trkpt>
      <trkpt lat="43.97345" lon="2.72585">
        <ele>299</ele>
        <time>2020-10-18T10:20:39.000Z</time>
      </trkpt>
      <trkpt lat="43.97337" lon="2.72567">
        <ele>299</ele>
        <time>2020-10-18T10:21:50.000Z</time>
      </trkpt>
      <trkpt lat="43.97328" lon="2.72544">
        <ele>297.79998779297</ele>
        <time>2020-10-18T10:22:03.000Z</time>
      </trkpt>
      <trkpt lat="43.97322" lon="2.72521">
        <ele>296.79998779297</ele>
        <time>2020-10-18T10:22:15.000Z</time>
      </trkpt>
      <trkpt lat="43.97313" lon="2.72499">
        <ele>295.60000610352</ele>
        <time>2020-10-18T10:22:28.000Z</time>
      </trkpt>
      <trkpt lat="43.97314" lon="2.72495">
        <ele>295.79998779297</ele>
        <time>2020-10-18T10:22:34.000Z</time>
      </trkpt>
      <trkpt lat="43.97318" lon="2.7247">
        <ele>295.79998779297</ele>
        <time>2020-10-18T10:22:48.000Z</time>
      </trkpt>
      <trkpt lat="43.97319" lon="2.72444">
        <ele>293.20001220703</ele>
        <time>2020-10-18T10:23:01.000Z</time>
      </trkpt>
      <trkpt lat="43.97318" lon="2.72425">
        <ele>291</ele>
        <time>2020-10-18T10:23:38.000Z</time>
      </trkpt>
      <trkpt lat="43.9732" lon="2.724">
        <ele>290.39999389648</ele>
        <time>2020-10-18T10:23:53.000Z</time>
      </trkpt>
      <trkpt lat="43.97319" lon="2.72375">
        <ele>289.39999389648</ele>
        <time>2020-10-18T10:24:08.000Z</time>
      </trkpt>
      <trkpt lat="43.97324" lon="2.7235">
        <ele>285</ele>
        <time>2020-10-18T10:24:23.000Z</time>
      </trkpt>
      <trkpt lat="43.97329" lon="2.72325">
        <ele>281.20001220703</ele>
        <time>2020-10-18T10:24:38.000Z</time>
      </trkpt>
      <trkpt lat="43.97335" lon="2.72302">
        <ele>278</ele>
        <time>2020-10-18T10:24:55.000Z</time>
      </trkpt>
      <trkpt lat="43.97342" lon="2.72277">
        <ele>274.79998779297</ele>
        <time>2020-10-18T10:25:09.000Z</time>
      </trkpt>
      <trkpt lat="43.97352" lon="2.7226">
        <ele>271.60000610352</ele>
        <time>2020-10-18T10:25:32.000Z</time>
      </trkpt>
      <trkpt lat="43.97349" lon="2.72234">
        <ele>269.79998779297</ele>
        <time>2020-10-18T10:25:45.000Z</time>
      </trkpt>
      <trkpt lat="43.97344" lon="2.72208">
        <ele>268.60000610352</ele>
        <time>2020-10-18T10:25:57.000Z</time>
      </trkpt>
      <trkpt lat="43.97336" lon="2.72185">
        <ele>268</ele>
        <time>2020-10-18T10:26:10.000Z</time>
      </trkpt>
      <trkpt lat="43.97329" lon="2.72161">
        <ele>266.79998779297</ele>
        <time>2020-10-18T10:26:22.000Z</time>
      </trkpt>
      <trkpt lat="43.9732" lon="2.72138">
        <ele>265.79998779297</ele>
        <time>2020-10-18T10:26:35.000Z</time>
      </trkpt>
      <trkpt lat="43.9732" lon="2.72129">
        <ele>265.39999389648</ele>
        <time>2020-10-18T10:26:40.000Z</time>
      </trkpt>
      <trkpt lat="43.97324" lon="2.72121">
        <ele>265.20001220703</ele>
        <time>2020-10-18T10:26:46.000Z</time>
      </trkpt>
      <trkpt lat="43.97326" lon="2.72117">
        <ele>265.20001220703</ele>
        <time>2020-10-18T10:26:48.000Z</time>
      </trkpt>
      <trkpt lat="43.97343" lon="2.72105">
        <ele>264.60000610352</ele>
        <time>2020-10-18T10:26:59.000Z</time>
      </trkpt>
      <trkpt lat="43.97358" lon="2.7209">
        <ele>264</ele>
        <time>2020-10-18T10:27:10.000Z</time>
      </trkpt>
      <trkpt lat="43.97374" lon="2.72077">
        <ele>263.79998779297</ele>
        <time>2020-10-18T10:27:22.000Z</time>
      </trkpt>
      <trkpt lat="43.97379" lon="2.72054">
        <ele>264.79998779297</ele>
        <time>2020-10-18T10:27:34.000Z</time>
      </trkpt>
      <trkpt lat="43.97378" lon="2.72048">
        <ele>265.20001220703</ele>
        <time>2020-10-18T10:27:38.000Z</time>
        <extensions>
          <visugpx:TrkExtension xmlns:visugpx="https://www.visugpx.com/editgpx/">
            <visugpx:node>1</visugpx:node>
            </visugpx:TrkExtension>
        </extensions>
      </trkpt>
    </trkseg>
  </trk>
</gpx>